Observation data for Fort Chadbourne on 06/25/2019      Previous  Date  Next       Current Mesonet Observations  Soil Data  Daily Summary Page  Observations in Plain Language
KCH1 250500Z 06004KT 22/19 A2995 RMK A01 T02150192  RH  087%=      5-min Rain = 0
KCH1 250501Z 05004KT 21/19 A2995 RMK A01 T02140192  RH  087%=      5-min Rain = 0
KCH1 250502Z 06004KT 21/19 A2996 RMK A01 T02140191  RH  087%=      5-min Rain = 0
KCH1 250503Z 06004KT 21/19 A2996 RMK A01 T02140191  RH  087%=      5-min Rain = 0
KCH1 250504Z 05004KT 21/19 A2996 RMK A01 T02140191  RH  087%=      5-min Rain = 0
KCH1 250505Z 04003KT 21/19 A2996 RMK A01 T02140191  RH  087%=      5-min Rain = 0
KCH1 250506Z 04002KT 21/19 A2996 RMK A01 T02140191  RH  087%=      5-min Rain = 0
KCH1 250507Z 03002KT 21/19 A2996 RMK A01 T02140191  RH  087%=      5-min Rain = 0
KCH1 250508Z 02002KT 21/19 A2996 RMK A01 T02140192  RH  087%=      5-min Rain = 0
KCH1 250509Z 02003KT 21/19 A2996 RMK A01 T02140192  RH  087%=      5-min Rain = 0
KCH1 250510Z 02004KT 21/19 A2996 RMK A01 T02140192  RH  087%=      5-min Rain = 0
KCH1 250511Z 01004KT 21/19 A2996 RMK A01 T02140193  RH  088%=      5-min Rain = 0
KCH1 250512Z 01004KT 21/19 A2996 RMK A01 T02130194  RH  088%=      5-min Rain = 0
KCH1 250513Z 02003KT 21/19 A2997 RMK A01 T02130193  RH  088%=      5-min Rain = 0
KCH1 250514Z 02002KT 21/19 A2997 RMK A01 T02130193  RH  089%=      5-min Rain = 0
KCH1 250515Z 04002KT 21/19 A2997 RMK A01 T02120193  RH  088%=      5-min Rain = 0
KCH1 250516Z 05003KT 21/19 A2997 RMK A01 T02120192  RH  088%=      5-min Rain = 0
KCH1 250517Z 06003KT 21/19 A2997 RMK A01 T02120191  RH  088%=      5-min Rain = 0
KCH1 250518Z 06004KT 21/19 A2997 RMK A01 T02120192  RH  088%=      5-min Rain = 0
KCH1 250519Z 06006KT 21/19 A2996 RMK A01 T02120193  RH  089%=      5-min Rain = 0
KCH1 250520Z 06008KT 21/19 A2996 RMK A01 T02110194  RH  090%=      5-min Rain = 0
KCH1 250521Z 06008KT 21/19 A2996 RMK A01 T02090193  RH  090%=      5-min Rain = 0
KCH1 250522Z 06007KT 21/19 A2996 RMK A01 T02080191  RH  090%=      5-min Rain = 0
KCH1 250523Z 05004KT 21/19 A2997 RMK A01 T02070189  RH  089%=      5-min Rain = 0
KCH1 250524Z 05003KT 21/19 A2997 RMK A01 T02070188  RH  089%=      5-min Rain = 0
KCH1 250525Z 07004KT 21/19 A2997 RMK A01 T02080187  RH  088%=      5-min Rain = 0
KCH1 250526Z 06005KT 21/19 A2997 RMK A01 T02080186  RH  087%=      5-min Rain = 0
KCH1 250527Z 06007KT 21/19 A2997 RMK A01 T02080186  RH  087%=      5-min Rain = 0
KCH1 250528Z 07006KT 21/19 A2996 RMK A01 T02090186  RH  087%=      5-min Rain = 0
KCH1 250529Z 07005KT 21/19 A2996 RMK A01 T02090187  RH  087%=      5-min Rain = 0
KCH1 250530Z 07006KT 21/19 A2996 RMK A01 T02090187  RH  087%=      5-min Rain = 0
KCH1 250531Z 06006KT 21/19 A2996 RMK A01 T02080186  RH  087%=      5-min Rain = 0
KCH1 250532Z 06007KT 21/19 A2996 RMK A01 T02080186  RH  087%=      5-min Rain = 0
KCH1 250533Z 06007KT 21/19 A2997 RMK A01 T02080186  RH  088%=      5-min Rain = 0
KCH1 250534Z 06008KT 21/19 A2997 RMK A01 T02070186  RH  087%=      5-min Rain = 0
KCH1 250535Z 06007KT 21/19 A2997 RMK A01 T02070185  RH  087%=      5-min Rain = 0
KCH1 250536Z 05007KT 21/18 A2997 RMK A01 T02070184  RH  086%=      5-min Rain = 0
KCH1 250537Z 05006KT 21/18 A2997 RMK A01 T02070183  RH  086%=      5-min Rain = 0
KCH1 250538Z 05006KT 21/18 A2997 RMK A01 T02070182  RH  086%=      5-min Rain = 0
KCH1 250539Z 06006KT 21/18 A2996 RMK A01 T02070182  RH  086%=      5-min Rain = 0
KCH1 250540Z 07006KT 21/18 A2996 RMK A01 T02070181  RH  085%=      5-min Rain = 0
KCH1 250541Z 06007KT 21/18 A2996 RMK A01 T02080182  RH  085%=      5-min Rain = 0
KCH1 250542Z 07008KT 21/18 A2996 RMK A01 T02070182  RH  086%=      5-min Rain = 0
KCH1 250543Z 07007KT 21/18 A2996 RMK A01 T02070183  RH  086%=      5-min Rain = 0
KCH1 250544Z 06008KT 21/18 A2996 RMK A01 T02060182  RH  086%=      5-min Rain = 0
KCH1 250545Z 06009KT 21/18 A2996 RMK A01 T02070182  RH  086%=      5-min Rain = 0
KCH1 250546Z 06009KT 21/18 A2996 RMK A01 T02060181  RH  085%=      5-min Rain = 0
KCH1 250547Z 06008KT 21/18 A2996 RMK A01 T02060180  RH  085%=      5-min Rain = 0
KCH1 250548Z 06007KT 21/18 A2996 RMK A01 T02070179  RH  084%=      5-min Rain = 0
KCH1 250549Z 05006KT 21/18 A2995 RMK A01 T02070179  RH  084%=      5-min Rain = 0
KCH1 250550Z 06004KT 21/18 A2995 RMK A01 T02070179  RH  084%=      5-min Rain = 0
KCH1 250551Z 06004KT 21/18 A2995 RMK A01 T02070178  RH  083%=      5-min Rain = 0
KCH1 250552Z 07004KT 21/18 A2995 RMK A01 T02070178  RH  084%=      5-min Rain = 0
KCH1 250553Z 07005KT 21/18 A2995 RMK A01 T02070178  RH  084%=      5-min Rain = 0
KCH1 250554Z 05006KT 21/18 A2995 RMK A01 T02060179  RH  084%=      5-min Rain = 0
KCH1 250555Z 05009KT 21/18 A2995 RMK A01 T02060179  RH  084%=      5-min Rain = 0
KCH1 250556Z 04008KT 21/18 A2995 RMK A01 T02050176  RH  083%=      5-min Rain = 0
KCH1 250557Z 05009KT 21/18 A2995 RMK A01 T02060176  RH  083%=      5-min Rain = 0
KCH1 250558Z 06008KT 21/18 A2995 RMK A01 T02070176  RH  083%=      5-min Rain = 0
KCH1 250559Z 07007KT 21/18 A2995 RMK A01 T02070175  RH  082%=      5-min Rain = 0
KCH1 250600Z 06006KT 21/18 A2995 RMK A01 T02070175  RH  082%=      5-min Rain = 0
KCH1 250601Z 07006KT 21/18 A2995 RMK A01 T02070175  RH  082%=      5-min Rain = 0
KCH1 250602Z 08006KT 21/17 A2995 RMK A01 T02070174  RH  081%=      5-min Rain = 0
KCH1 250603Z 08005KT 21/17 A2995 RMK A01 T02080174  RH  081%=      5-min Rain = 0
KCH1 250604Z 10004KT 21/17 A2994 RMK A01 T02080173  RH  080%=      5-min Rain = 0
KCH1 250605Z 11005KT 21/18 A2994 RMK A01 T02080176  RH  082%=      5-min Rain = 0
KCH1 250606Z 10007KT 21/17 A2994 RMK A01 T02080174  RH  081%=      5-min Rain = 0
KCH1 250607Z 10006G11KT 21/17 A2994 RMK A01 T02070173  RH  080%=      5-min Rain = 0
KCH1 250608Z 11008KT 21/17 A2994 RMK A01 T02070170  RH  079%=      5-min Rain = 0
KCH1 250609Z 11010KT 21/17 A2994 RMK A01 T02090167  RH  077%=      5-min Rain = 0
KCH1 250610Z 11009KT 21/17 A2994 RMK A01 T02120167  RH  075%=      5-min Rain = 0
KCH1 250611Z 12009KT 21/17 A2994 RMK A01 T02140168  RH  075%=      5-min Rain = 0
KCH1 250612Z 12008KT 21/17 A2994 RMK A01 T02140168  RH  075%=      5-min Rain = 0
KCH1 250613Z 13009KT 21/17 A2994 RMK A01 T02130168  RH  075%=      5-min Rain = 0
KCH1 250614Z 13009KT 21/17 A2994 RMK A01 T02140168  RH  075%=      5-min Rain = 0
KCH1 250615Z 13009KT 21/17 A2994 RMK A01 T02130169  RH  076%=      5-min Rain = 0
KCH1 250616Z 13008KT 21/17 A2994 RMK A01 T02130168  RH  075%=      5-min Rain = 0
KCH1 250617Z 14008KT 21/17 A2994 RMK A01 T02130168  RH  076%=      5-min Rain = 0
KCH1 250618Z 14008KT 21/17 A2994 RMK A01 T02130169  RH  076%=      5-min Rain = 0
KCH1 250619Z 14009KT 21/17 A2994 RMK A01 T02120169  RH  076%=      5-min Rain = 0
KCH1 250620Z 14008KT 21/17 A2994 RMK A01 T02120168  RH  076%=      5-min Rain = 0
KCH1 250621Z 13009KT 21/17 A2994 RMK A01 T02110168  RH  076%=      5-min Rain = 0
KCH1 250622Z 13009KT 21/17 A2994 RMK A01 T02110167  RH  076%=      5-min Rain = 0
KCH1 250623Z 14010KT 21/17 A2994 RMK A01 T02110167  RH  076%=      5-min Rain = 0
KCH1 250624Z 14010KT 21/17 A2994 RMK A01 T02110167  RH  076%=      5-min Rain = 0
KCH1 250625Z 13010KT 21/17 A2994 RMK A01 T02120168  RH  076%=      5-min Rain = 0
KCH1 250626Z 14009KT 21/17 A2994 RMK A01 T02120168  RH  076%=      5-min Rain = 0
KCH1 250627Z 14008KT 21/17 A2994 RMK A01 T02110169  RH  077%=      5-min Rain = 0
KCH1 250628Z 14008KT 21/17 A2994 RMK A01 T02110169  RH  077%=      5-min Rain = 0
KCH1 250629Z 14011KT 21/17 A2994 RMK A01 T02110169  RH  077%=      5-min Rain = 0
KCH1 250630Z 14011KT 21/17 A2994 RMK A01 T02100168  RH  077%=      5-min Rain = 0
KCH1 250631Z 14008KT 21/17 A2994 RMK A01 T02110169  RH  077%=      5-min Rain = 0
KCH1 250632Z 14008KT 21/17 A2994 RMK A01 T02110170  RH  077%=      5-min Rain = 0
KCH1 250633Z 15008KT 21/17 A2994 RMK A01 T02110170  RH  078%=      5-min Rain = 0
KCH1 250634Z 14007KT 21/17 A2994 RMK A01 T02100170  RH  078%=      5-min Rain = 0
KCH1 250635Z 15009KT 21/17 A2994 RMK A01 T02090170  RH  078%=      5-min Rain = 0
KCH1 250636Z 15007KT 21/17 A2994 RMK A01 T02090170  RH  078%=      5-min Rain = 0
KCH1 250637Z 16008KT 21/17 A2994 RMK A01 T02090170  RH  078%=      5-min Rain = 0
KCH1 250638Z 16007KT 21/17 A2994 RMK A01 T02090170  RH  078%=      5-min Rain = 0
KCH1 250639Z 16006KT 21/17 A2994 RMK A01 T02090171  RH  079%=      5-min Rain = 0
KCH1 250640Z 17008KT 21/17 A2994 RMK A01 T02080171  RH  079%=      5-min Rain = 0
KCH1 250641Z 16008KT 21/17 A2993 RMK A01 T02080171  RH  079%=      5-min Rain = 0
KCH1 250642Z 16008KT 21/17 A2993 RMK A01 T02080171  RH  080%=      5-min Rain = 0
KCH1 250643Z 16009KT 21/17 A2993 RMK A01 T02070172  RH  080%=      5-min Rain = 0
KCH1 250644Z 16009KT 21/17 A2993 RMK A01 T02070172  RH  080%=      5-min Rain = 0
KCH1 250645Z 16008KT 21/17 A2993 RMK A01 T02070172  RH  080%=      5-min Rain = 0
KCH1 250646Z 17009KT 21/17 A2993 RMK A01 T02070172  RH  080%=      5-min Rain = 0
KCH1 250647Z 17010G15KT 21/17 A2993 RMK A01 T02070173  RH  080%=      5-min Rain = 0
KCH1 250648Z 17008KT 21/17 A2993 RMK A01 T02070173  RH  081%=      5-min Rain = 0
KCH1 250649Z 17009KT 21/17 A2993 RMK A01 T02070173  RH  081%=      5-min Rain = 0
KCH1 250650Z 17009KT 21/17 A2993 RMK A01 T02060173  RH  081%=      5-min Rain = 0
KCH1 250651Z 16009KT 21/17 A2993 RMK A01 T02060173  RH  081%=      5-min Rain = 0
KCH1 250652Z 17008KT 21/17 A2993 RMK A01 T02060173  RH  081%=      5-min Rain = 0
KCH1 250653Z 16007KT 21/17 A2993 RMK A01 T02060174  RH  081%=      5-min Rain = 0
KCH1 250654Z 17007KT 21/17 A2993 RMK A01 T02060174  RH  082%=      5-min Rain = 0
KCH1 250655Z 17006KT 21/17 A2993 RMK A01 T02050174  RH  082%=      5-min Rain = 0
KCH1 250656Z 17006KT 21/17 A2993 RMK A01 T02050174  RH  082%=      5-min Rain = 0
KCH1 250657Z 17005KT 21/17 A2993 RMK A01 T02050174  RH  083%=      5-min Rain = 0
KCH1 250658Z 16005KT 21/17 A2993 RMK A01 T02050174  RH  083%=      5-min Rain = 0
KCH1 250659Z 16006KT 21/17 A2993 RMK A01 T02050174  RH  082%=      5-min Rain = 0
KCH1 250700Z 15004KT 21/17 A2993 RMK A01 T02050174  RH  082%=      5-min Rain = 0
KCH1 250701Z 16004KT 20/17 A2993 RMK A01 T02040174  RH  083%=      5-min Rain = 0
KCH1 250702Z 16005KT 21/17 A2993 RMK A01 T02050174  RH  083%=      5-min Rain = 0
KCH1 250703Z 17003KT 21/17 A2994 RMK A01 T02050174  RH  083%=      5-min Rain = 0
KCH1 250704Z 20003KT 20/17 A2994 RMK A01 T02040174  RH  083%=      5-min Rain = 0
KCH1 250705Z 19004KT 20/17 A2994 RMK A01 T02040174  RH  083%=      5-min Rain = 0
KCH1 250706Z 19004KT 21/17 A2994 RMK A01 T02050174  RH  083%=      5-min Rain = 0
KCH1 250707Z 19004KT 21/17 A2993 RMK A01 T02050174  RH  082%=      5-min Rain = 0
KCH1 250708Z 19004KT 21/17 A2993 RMK A01 T02060174  RH  082%=      5-min Rain = 0
KCH1 250709Z 19004KT 21/17 A2993 RMK A01 T02060174  RH  082%=      5-min Rain = 0
KCH1 250710Z 19006KT 21/17 A2993 RMK A01 T02060174  RH  082%=      5-min Rain = 0
KCH1 250711Z 19006KT 21/17 A2993 RMK A01 T02060173  RH  081%=      5-min Rain = 0
KCH1 250712Z 19007KT 21/17 A2993 RMK A01 T02070173  RH  081%=      5-min Rain = 0
KCH1 250713Z 19006KT 21/17 A2993 RMK A01 T02070173  RH  081%=      5-min Rain = 0
KCH1 250714Z 20007KT 21/17 A2993 RMK A01 T02070173  RH  081%=      5-min Rain = 0
KCH1 250715Z 19007KT 21/17 A2993 RMK A01 T02080173  RH  080%=      5-min Rain = 0
KCH1 250716Z 19005KT 21/17 A2993 RMK A01 T02090173  RH  080%=      5-min Rain = 0
KCH1 250717Z 18006KT 21/17 A2993 RMK A01 T02090173  RH  080%=      5-min Rain = 0
KCH1 250718Z 19007KT 21/17 A2993 RMK A01 T02090173  RH  080%=      5-min Rain = 0
KCH1 250719Z 18007KT 21/17 A2993 RMK A01 T02090173  RH  080%=      5-min Rain = 0
KCH1 250720Z 19006KT 21/17 A2994 RMK A01 T02090173  RH  080%=      5-min Rain = 0
KCH1 250721Z 18007KT 21/17 A2994 RMK A01 T02090173  RH  080%=      5-min Rain = 0
KCH1 250722Z 18006KT 21/17 A2994 RMK A01 T02090173  RH  080%=      5-min Rain = 0
KCH1 250723Z 18005KT 21/17 A2994 RMK A01 T02090174  RH  080%=      5-min Rain = 0
KCH1 250724Z 19004KT 21/17 A2994 RMK A01 T02090174  RH  080%=      5-min Rain = 0
KCH1 250725Z 18005KT 21/18 A2994 RMK A01 T02090175  RH  081%=      5-min Rain = 0
KCH1 250726Z 18006KT 21/17 A2993 RMK A01 T02090174  RH  081%=      5-min Rain = 0
KCH1 250727Z 19005KT 21/17 A2993 RMK A01 T02090174  RH  081%=      5-min Rain = 0
KCH1 250728Z 18007KT 21/18 A2993 RMK A01 T02090175  RH  081%=      5-min Rain = 0
KCH1 250729Z 18006KT 21/17 A2993 RMK A01 T02090174  RH  081%=      5-min Rain = 0
KCH1 250730Z 19006KT 21/17 A2993 RMK A01 T02090174  RH  081%=      5-min Rain = 0
KCH1 250731Z 19005KT 21/18 A2993 RMK A01 T02090175  RH  081%=      5-min Rain = 0
KCH1 250732Z 18006KT 21/18 A2993 RMK A01 T02090175  RH  081%=      5-min Rain = 0
KCH1 250733Z 19005KT 21/18 A2993 RMK A01 T02090175  RH  081%=      5-min Rain = 0
KCH1 250734Z 19006KT 21/18 A2993 RMK A01 T02090176  RH  081%=      5-min Rain = 0
KCH1 250735Z 18005KT 21/18 A2993 RMK A01 T02080175  RH  082%=      5-min Rain = 0
KCH1 250736Z 17004KT 21/18 A2993 RMK A01 T02070175  RH  082%=      5-min Rain = 0
KCH1 250737Z 18006KT 21/18 A2993 RMK A01 T02070176  RH  082%=      5-min Rain = 0
KCH1 250738Z 18004KT 21/18 A2992 RMK A01 T02060176  RH  083%=      5-min Rain = 0
KCH1 250739Z 18005KT 21/18 A2992 RMK A01 T02050176  RH  083%=      5-min Rain = 0
KCH1 250740Z 18005KT 21/18 A2992 RMK A01 T02050176  RH  083%=      5-min Rain = 0
KCH1 250741Z 19005KT 20/18 A2992 RMK A01 T02040176  RH  083%=      5-min Rain = 0
KCH1 250742Z 19005KT 21/18 A2992 RMK A01 T02050176  RH  084%=      5-min Rain = 0
KCH1 250743Z 18006KT 20/18 A2992 RMK A01 T02040176  RH  084%=      5-min Rain = 0
KCH1 250744Z 19005KT 20/18 A2993 RMK A01 T02040176  RH  084%=      5-min Rain = 0
KCH1 250745Z 19005KT 20/18 A2992 RMK A01 T02040176  RH  084%=      5-min Rain = 0
KCH1 250746Z 18004KT 20/18 A2992 RMK A01 T02040176  RH  084%=      5-min Rain = 0
KCH1 250747Z 18004KT 20/18 A2992 RMK A01 T02040176  RH  084%=      5-min Rain = 0
KCH1 250748Z 18005KT 20/18 A2992 RMK A01 T02040176  RH  084%=      5-min Rain = 0
KCH1 250749Z 17004KT 20/18 A2992 RMK A01 T02030176  RH  084%=      5-min Rain = 0
KCH1 250750Z 18005KT 20/18 A2992 RMK A01 T02030177  RH  085%=      5-min Rain = 0
KCH1 250751Z 17003KT 20/18 A2992 RMK A01 T02030177  RH  085%=      5-min Rain = 0
KCH1 250752Z 18004KT 20/18 A2992 RMK A01 T02020177  RH  085%=      5-min Rain = 0
KCH1 250753Z 17005KT 20/18 A2992 RMK A01 T02020176  RH  085%=      5-min Rain = 0
KCH1 250754Z 18005KT 20/18 A2992 RMK A01 T02020177  RH  085%=      5-min Rain = 0
KCH1 250755Z 18004KT 20/18 A2992 RMK A01 T02020176  RH  085%=      5-min Rain = 0
KCH1 250756Z 18005KT 20/18 A2992 RMK A01 T02020176  RH  085%=      5-min Rain = 0
KCH1 250757Z 17004KT 20/18 A2992 RMK A01 T02020176  RH  085%=      5-min Rain = 0
KCH1 250758Z 17004KT 20/18 A2992 RMK A01 T02020176  RH  085%=      5-min Rain = 0
KCH1 250759Z 16004KT 20/18 A2992 RMK A01 T02020176  RH  085%=      5-min Rain = 0
KCH1 250800Z 17004KT 20/18 A2992 RMK A01 T02020177  RH  086%=      5-min Rain = 0
KCH1 250801Z 17003KT 20/18 A2992 RMK A01 T02010177  RH  086%=      5-min Rain = 0
KCH1 250802Z 18004KT 20/18 A2992 RMK A01 T02010177  RH  086%=      5-min Rain = 0
KCH1 250803Z 18003KT 20/18 A2992 RMK A01 T02010177  RH  086%=      5-min Rain = 0
KCH1 250804Z 18003KT 20/18 A2992 RMK A01 T02010177  RH  086%=      5-min Rain = 0
KCH1 250805Z 18003KT 20/18 A2992 RMK A01 T02010177  RH  086%=      5-min Rain = 0
KCH1 250806Z 17003KT 20/18 A2992 RMK A01 T02000177  RH  086%=      5-min Rain = 0
KCH1 250807Z 16004KT 20/18 A2992 RMK A01 T02000176  RH  086%=      5-min Rain = 0
KCH1 250808Z 16002KT 20/18 A2991 RMK A01 T02000177  RH  086%=      5-min Rain = 0
KCH1 250809Z 17003KT 20/18 A2992 RMK A01 T02000176  RH  086%=      5-min Rain = 0
KCH1 250810Z 18003KT 20/18 A2992 RMK A01 T01990176  RH  087%=      5-min Rain = 0
KCH1 250811Z 19003KT 20/18 A2992 RMK A01 T02000177  RH  087%=      5-min Rain = 0
KCH1 250812Z 19002KT 20/18 A2992 RMK A01 T02000177  RH  087%=      5-min Rain = 0
KCH1 250813Z 18003KT 20/18 A2991 RMK A01 T01990177  RH  087%=      5-min Rain = 0
KCH1 250814Z 18003KT 20/18 A2991 RMK A01 T02000177  RH  087%=      5-min Rain = 0
KCH1 250815Z 18003KT 20/18 A2991 RMK A01 T01990177  RH  087%=      5-min Rain = 0
KCH1 250816Z 18004KT 20/18 A2992 RMK A01 T01990177  RH  087%=      5-min Rain = 0
KCH1 250817Z 17004KT 20/18 A2992 RMK A01 T01990177  RH  087%=      5-min Rain = 0
KCH1 250818Z 17004KT 20/18 A2992 RMK A01 T01990177  RH  087%=      5-min Rain = 0
KCH1 250819Z 17004KT 20/18 A2992 RMK A01 T01990176  RH  087%=      5-min Rain = 0
KCH1 250820Z 17004KT 20/18 A2992 RMK A01 T01990176  RH  087%=      5-min Rain = 0
KCH1 250821Z 16004KT 20/18 A2992 RMK A01 T01980177  RH  087%=      5-min Rain = 0
KCH1 250822Z 17003KT 20/18 A2992 RMK A01 T01980177  RH  087%=      5-min Rain = 0
KCH1 250823Z 17003KT 20/18 A2992 RMK A01 T01980177  RH  088%=      5-min Rain = 0
KCH1 250824Z 18003KT 20/18 A2992 RMK A01 T01970177  RH  088%=      5-min Rain = 0
KCH1 250825Z 18002KT 20/18 A2992 RMK A01 T01970177  RH  088%=      5-min Rain = 0
KCH1 250826Z 17003KT 20/18 A2992 RMK A01 T01970177  RH  088%=      5-min Rain = 0
KCH1 250827Z 17003KT 20/18 A2992 RMK A01 T01970176  RH  088%=      5-min Rain = 0
KCH1 250828Z 16003KT 20/18 A2991 RMK A01 T01970177  RH  088%=      5-min Rain = 0
KCH1 250829Z 16003KT 20/18 A2991 RMK A01 T01970177  RH  088%=      5-min Rain = 0
KCH1 250830Z 17003KT 20/18 A2992 RMK A01 T01960176  RH  088%=      5-min Rain = 0
KCH1 250831Z 17002KT 20/18 A2992 RMK A01 T01970177  RH  088%=      5-min Rain = 0
KCH1 250832Z 18003KT 20/18 A2992 RMK A01 T01960177  RH  089%=      5-min Rain = 0
KCH1 250833Z 18002KT 20/18 A2992 RMK A01 T01960177  RH  089%=      5-min Rain = 0
KCH1 250834Z 20001KT 20/18 A2992 RMK A01 T01960177  RH  089%=      5-min Rain = 0
KCH1 250835Z 22001KT 20/18 A2992 RMK A01 T01950177  RH  089%=      5-min Rain = 0
KCH1 250836Z 26001KT 20/18 A2992 RMK A01 T01950177  RH  089%=      5-min Rain = 0
KCH1 250837Z 27002KT 20/18 A2992 RMK A01 T01950177  RH  089%=      5-min Rain = 0
KCH1 250838Z 28003KT 20/18 A2992 RMK A01 T01950178  RH  090%=      5-min Rain = 0
KCH1 250839Z 29004KT 20/18 A2992 RMK A01 T01950178  RH  090%=      5-min Rain = 0
KCH1 250840Z 30004KT 19/18 A2992 RMK A01 T01940178  RH  090%=      5-min Rain = 0
KCH1 250841Z 30003KT 19/18 A2992 RMK A01 T01930178  RH  091%=      5-min Rain = 0
KCH1 250842Z 30001KT 19/18 A2992 RMK A01 T01930178  RH  091%=      5-min Rain = 0
KCH1 250843Z 30000KT 19/18 A2992 RMK A01 T01930178  RH  091%=      5-min Rain = 0
KCH1 250844Z 00000KT 19/18 A2992 RMK A01 T01930178  RH  091%=      5-min Rain = 0
KCH1 250845Z 32000KT 19/18 A2992 RMK A01 T01930178  RH  091%=      5-min Rain = 0
KCH1 250846Z 32001KT 19/18 A2992 RMK A01 T01930178  RH  091%=      5-min Rain = 0
KCH1 250847Z 33001KT 19/18 A2992 RMK A01 T01930178  RH  091%=      5-min Rain = 0
KCH1 250848Z 33002KT 19/18 A2992 RMK A01 T01930177  RH  091%=      5-min Rain = 0
KCH1 250849Z 33002KT 19/18 A2992 RMK A01 T01930177  RH  091%=      5-min Rain = 0
KCH1 250850Z 33002KT 19/18 A2992 RMK A01 T01930178  RH  091%=      5-min Rain = 0
KCH1 250851Z 32002KT 19/18 A2992 RMK A01 T01920177  RH  091%=      5-min Rain = 0
KCH1 250852Z 31001KT 19/18 A2992 RMK A01 T01910177  RH  091%=      5-min Rain = 0
KCH1 250853Z 29001KT 19/18 A2992 RMK A01 T01900177  RH  092%=      5-min Rain = 0
KCH1 250854Z 29001KT 19/18 A2991 RMK A01 T01900177  RH  092%=      5-min Rain = 0
KCH1 250855Z 25001KT 19/18 A2991 RMK A01 T01900177  RH  093%=      5-min Rain = 0
KCH1 250856Z 23001KT 19/18 A2991 RMK A01 T01890177  RH  093%=      5-min Rain = 0
KCH1 250857Z 22001KT 19/18 A2991 RMK A01 T01880176  RH  093%=      5-min Rain = 0
KCH1 250858Z 22002KT 19/18 A2991 RMK A01 T01870176  RH  093%=      5-min Rain = 0
KCH1 250859Z 22002KT 19/18 A2991 RMK A01 T01860175  RH  094%=      5-min Rain = 0
KCH1 250900Z 21001KT 19/18 A2991 RMK A01 T01850176  RH  094%=      5-min Rain = 0
KCH1 250901Z 23001KT 19/18 A2991 RMK A01 T01850177  RH  095%=      5-min Rain = 0
KCH1 250902Z 24001KT 18/18 A2991 RMK A01 T01840177  RH  096%=      5-min Rain = 0
KCH1 250903Z 24001KT 18/18 A2992 RMK A01 T01840178  RH  096%=      5-min Rain = 0
KCH1 250904Z 24001KT 19/18 A2992 RMK A01 T01850178  RH  096%=      5-min Rain = 0
KCH1 250905Z 25000KT 19/18 A2992 RMK A01 T01850178  RH  096%=      5-min Rain = 0
KCH1 250906Z 00000KT 19/18 A2992 RMK A01 T01850178  RH  096%=      5-min Rain = 0
KCH1 250907Z 31000KT 19/18 A2992 RMK A01 T01850178  RH  096%=      5-min Rain = 0
KCH1 250908Z 31000KT 19/18 A2992 RMK A01 T01850178  RH  095%=      5-min Rain = 0
KCH1 250909Z 32001KT 18/18 A2992 RMK A01 T01840177  RH  096%=      5-min Rain = 0
KCH1 250910Z 33001KT 18/18 A2992 RMK A01 T01840177  RH  096%=      5-min Rain = 0
KCH1 250911Z 33001KT 18/18 A2992 RMK A01 T01840177  RH  096%=      5-min Rain = 0
KCH1 250912Z 00000KT 18/18 A2992 RMK A01 T01840178  RH  096%=      5-min Rain = 0
KCH1 250913Z 00000KT 18/18 A2992 RMK A01 T01840178  RH  096%=      5-min Rain = 0
KCH1 250914Z 00000KT 18/18 A2992 RMK A01 T01840178  RH  096%=      5-min Rain = 0
KCH1 250915Z 00000KT 18/18 A2992 RMK A01 T01840177  RH  096%=      5-min Rain = 0
KCH1 250916Z 00000KT 18/18 A2991 RMK A01 T01830176  RH  096%=      5-min Rain = 0
KCH1 250917Z 00000KT 18/18 A2991 RMK A01 T01820175  RH  096%=      5-min Rain = 0
KCH1 250918Z 00000KT 18/18 A2991 RMK A01 T01810175  RH  096%=      5-min Rain = 0
KCH1 250919Z 00000KT 18/18 A2991 RMK A01 T01810175  RH  097%=      5-min Rain = 0
KCH1 250920Z 00000KT 18/18 A2992 RMK A01 T01810176  RH  097%=      5-min Rain = 0
KCH1 250921Z 00000KT 18/18 A2992 RMK A01 T01800175  RH  097%=      5-min Rain = 0
KCH1 250922Z 00000KT 18/17 A2992 RMK A01 T01790174  RH  097%=      5-min Rain = 0
KCH1 250923Z 00000KT 18/17 A2992 RMK A01 T01790174  RH  097%=      5-min Rain = 0
KCH1 250924Z 00000KT 18/17 A2992 RMK A01 T01780174  RH  097%=      5-min Rain = 0
KCH1 250925Z 00000KT 18/17 A2992 RMK A01 T01780174  RH  097%=      5-min Rain = 0
KCH1 250926Z 00000KT 18/18 A2992 RMK A01 T01780175  RH  098%=      5-min Rain = 0
KCH1 250927Z 32000KT 18/18 A2992 RMK A01 T01790176  RH  098%=      5-min Rain = 0
KCH1 250928Z 32001KT 18/18 A2992 RMK A01 T01800177  RH  098%=      5-min Rain = 0
KCH1 250929Z 32001KT 18/18 A2992 RMK A01 T01800177  RH  098%=      5-min Rain = 0
KCH1 250930Z 33001KT 18/18 A2992 RMK A01 T01800176  RH  098%=      5-min Rain = 0
KCH1 250931Z 33001KT 18/18 A2992 RMK A01 T01800176  RH  098%=      5-min Rain = 0
KCH1 250932Z 33001KT 18/18 A2992 RMK A01 T01800176  RH  097%=      5-min Rain = 0
KCH1 250933Z 33002KT 18/18 A2992 RMK A01 T01800176  RH  098%=      5-min Rain = 0
KCH1 250934Z 33002KT 18/18 A2992 RMK A01 T01800176  RH  098%=      5-min Rain = 0
KCH1 250935Z 34001KT 18/18 A2992 RMK A01 T01800177  RH  098%=      5-min Rain = 0
KCH1 250936Z 35001KT 18/18 A2992 RMK A01 T01800176  RH  098%=      5-min Rain = 0
KCH1 250937Z 01001KT 18/18 A2992 RMK A01 T01800177  RH  098%=      5-min Rain = 0
KCH1 250938Z 02001KT 18/18 A2992 RMK A01 T01800176  RH  098%=      5-min Rain = 0
KCH1 250939Z 02001KT 18/17 A2992 RMK A01 T01790174  RH  097%=      5-min Rain = 0
KCH1 250940Z 02001KT 18/17 A2992 RMK A01 T01780173  RH  097%=      5-min Rain = 0
KCH1 250941Z 02002KT 18/17 A2992 RMK A01 T01770173  RH  097%=      5-min Rain = 0
KCH1 250942Z 02003KT 18/17 A2992 RMK A01 T01760172  RH  097%=      5-min Rain = 0
KCH1 250943Z 01003KT 18/17 A2992 RMK A01 T01760172  RH  098%=      5-min Rain = 0
KCH1 250944Z 01004KT 18/17 A2992 RMK A01 T01750171  RH  098%=      5-min Rain = 0
KCH1 250945Z 01004KT 18/17 A2992 RMK A01 T01750172  RH  098%=      5-min Rain = 0
KCH1 250946Z 00004KT 18/17 A2992 RMK A01 T01750172  RH  098%=      5-min Rain = 0
KCH1 250947Z 00004KT 18/17 A2992 RMK A01 T01750173  RH  098%=      5-min Rain = 0
KCH1 250948Z 01004KT 18/17 A2992 RMK A01 T01750173  RH  099%=      5-min Rain = 0
KCH1 250949Z 01004KT 18/17 A2992 RMK A01 T01750173  RH  099%=      5-min Rain = 0
KCH1 250950Z 01004KT 18/17 A2992 RMK A01 T01750173  RH  099%=      5-min Rain = 0
KCH1 250951Z 01004KT 18/17 A2992 RMK A01 T01750173  RH  099%=      5-min Rain = 0
KCH1 250952Z 01004KT 18/17 A2992 RMK A01 T01750173  RH  099%=      5-min Rain = 0
KCH1 250953Z 00004KT 18/17 A2992 RMK A01 T01750173  RH  099%=      5-min Rain = 0
KCH1 250954Z 36003KT 18/17 A2992 RMK A01 T01750173  RH  099%=      5-min Rain = 0
KCH1 250955Z 35003KT 18/17 A2992 RMK A01 T01760174  RH  099%=      5-min Rain = 0
KCH1 250956Z 33003KT 18/17 A2992 RMK A01 T01760174  RH  099%=      5-min Rain = 0
KCH1 250957Z 31002KT 18/17 A2992 RMK A01 T01760174  RH  098%=      5-min Rain = 0
KCH1 250958Z 30002KT 18/17 A2992 RMK A01 T01770174  RH  098%=      5-min Rain = 0
KCH1 250959Z 30002KT 18/18 A2992 RMK A01 T01780175  RH  098%=      5-min Rain = 0
KCH1 251000Z 28002KT 18/18 A2992 RMK A01 T01780175  RH  098%=      5-min Rain = 0
KCH1 251001Z 29002KT 18/18 A2992 RMK A01 T01790176  RH  098%=      5-min Rain = 0
KCH1 251002Z 29002KT 18/18 A2992 RMK A01 T01800176  RH  097%=      5-min Rain = 0
KCH1 251003Z 29003KT 18/18 A2992 RMK A01 T01820177  RH  097%=      5-min Rain = 0
KCH1 251004Z 28002KT 18/18 A2992 RMK A01 T01840177  RH  096%=      5-min Rain = 0
KCH1 251005Z 28002KT 19/18 A2992 RMK A01 T01850176  RH  095%=      5-min Rain = 0
KCH1 251006Z 28003KT 19/18 A2992 RMK A01 T01850176  RH  094%=      5-min Rain = 0
KCH1 251007Z 28004KT 19/18 A2992 RMK A01 T01850175  RH  094%=      5-min Rain = 0
KCH1 251008Z 28004KT 19/18 A2992 RMK A01 T01850175  RH  094%=      5-min Rain = 0
KCH1 251009Z 29003KT 19/18 A2992 RMK A01 T01850175  RH  094%=      5-min Rain = 0
KCH1 251010Z 29004KT 19/18 A2992 RMK A01 T01850176  RH  094%=      5-min Rain = 0
KCH1 251011Z 29004KT 19/18 A2992 RMK A01 T01870176  RH  094%=      5-min Rain = 0
KCH1 251012Z 29004KT 19/18 A2992 RMK A01 T01870177  RH  093%=      5-min Rain = 0
KCH1 251013Z 30003KT 19/18 A2992 RMK A01 T01880177  RH  093%=      5-min Rain = 0
KCH1 251014Z 30002KT 19/18 A2992 RMK A01 T01880176  RH  093%=      5-min Rain = 0
KCH1 251015Z 31002KT 19/18 A2992 RMK A01 T01880176  RH  093%=      5-min Rain = 0
KCH1 251016Z 31002KT 19/18 A2992 RMK A01 T01870175  RH  093%=      5-min Rain = 0
KCH1 251017Z 31002KT 19/18 A2992 RMK A01 T01870176  RH  093%=      5-min Rain = 0
KCH1 251018Z 32003KT 19/18 A2992 RMK A01 T01870176  RH  093%=      5-min Rain = 0
KCH1 251019Z 32003KT 19/18 A2992 RMK A01 T01870177  RH  093%=      5-min Rain = 0
KCH1 251020Z 33003KT 19/18 A2993 RMK A01 T01870177  RH  093%=      5-min Rain = 0
KCH1 251021Z 33002KT 19/18 A2993 RMK A01 T01870176  RH  093%=      5-min Rain = 0
KCH1 251022Z 34001KT 19/17 A2993 RMK A01 T01850171  RH  091%=      5-min Rain = 0
KCH1 251023Z 35002KT 18/17 A2993 RMK A01 T01810168  RH  092%=      5-min Rain = 0
KCH1 251024Z 33002KT 18/17 A2993 RMK A01 T01780168  RH  094%=      5-min Rain = 0
KCH1 251025Z 33002KT 18/17 A2993 RMK A01 T01770169  RH  095%=      5-min Rain = 0
KCH1 251026Z 33003KT 18/17 A2993 RMK A01 T01760170  RH  096%=      5-min Rain = 0
KCH1 251027Z 33002KT 18/17 A2993 RMK A01 T01750169  RH  096%=      5-min Rain = 0
KCH1 251028Z 34001KT 17/17 A2993 RMK A01 T01740168  RH  096%=      5-min Rain = 0
KCH1 251029Z 34002KT 17/17 A2993 RMK A01 T01730168  RH  097%=      5-min Rain = 0
KCH1 251030Z 32003KT 17/17 A2993 RMK A01 T01720167  RH  097%=      5-min Rain = 0
KCH1 251031Z 33003KT 17/17 A2993 RMK A01 T01720168  RH  098%=      5-min Rain = 0
KCH1 251032Z 32003KT 17/17 A2993 RMK A01 T01720170  RH  099%=      5-min Rain = 0
KCH1 251033Z 32003KT 17/17 A2993 RMK A01 T01740172  RH  099%=      5-min Rain = 0
KCH1 251034Z 32003KT 18/18 A2993 RMK A01 T01760175  RH  099%=      5-min Rain = 0
KCH1 251035Z 31004KT 18/18 A2993 RMK A01 T01780176  RH  099%=      5-min Rain = 0
KCH1 251036Z 30004KT 18/18 A2993 RMK A01 T01790176  RH  098%=      5-min Rain = 0
KCH1 251037Z 30003KT 18/18 A2993 RMK A01 T01810175  RH  096%=      5-min Rain = 0
KCH1 251038Z 31003KT 18/17 A2993 RMK A01 T01810174  RH  096%=      5-min Rain = 0
KCH1 251039Z 31004KT 18/17 A2993 RMK A01 T01810174  RH  096%=      5-min Rain = 0
KCH1 251040Z 32003KT 18/17 A2993 RMK A01 T01820174  RH  095%=      5-min Rain = 0
KCH1 251041Z 32003KT 18/18 A2993 RMK A01 T01830175  RH  095%=      5-min Rain = 0
KCH1 251042Z 32004KT 18/17 A2993 RMK A01 T01830174  RH  094%=      5-min Rain = 0
KCH1 251043Z 32004KT 18/18 A2993 RMK A01 T01840175  RH  094%=      5-min Rain = 0
KCH1 251044Z 32003KT 19/18 A2993 RMK A01 T01850175  RH  094%=      5-min Rain = 0
KCH1 251045Z 32003KT 19/18 A2993 RMK A01 T01850175  RH  094%=      5-min Rain = 0
KCH1 251046Z 32003KT 19/18 A2993 RMK A01 T01860175  RH  093%=      5-min Rain = 0
KCH1 251047Z 31003KT 19/18 A2993 RMK A01 T01860175  RH  093%=      5-min Rain = 0
KCH1 251048Z 31003KT 19/18 A2993 RMK A01 T01860175  RH  093%=      5-min Rain = 0
KCH1 251049Z 32003KT 19/18 A2993 RMK A01 T01870175  RH  093%=      5-min Rain = 0
KCH1 251050Z 32004KT 19/18 A2993 RMK A01 T01880176  RH  093%=      5-min Rain = 0
KCH1 251051Z 31004KT 19/18 A2993 RMK A01 T01880176  RH  093%=      5-min Rain = 0
KCH1 251052Z 32004KT 19/18 A2993 RMK A01 T01880175  RH  093%=      5-min Rain = 0
KCH1 251053Z 32004KT 19/18 A2993 RMK A01 T01880175  RH  092%=      5-min Rain = 0
KCH1 251054Z 32004KT 19/18 A2993 RMK A01 T01880175  RH  093%=      5-min Rain = 0
KCH1 251055Z 32004KT 19/18 A2993 RMK A01 T01870175  RH  093%=      5-min Rain = 0
KCH1 251056Z 32005KT 19/18 A2993 RMK A01 T01860175  RH  093%=      5-min Rain = 0
KCH1 251057Z 31004KT 19/18 A2993 RMK A01 T01860175  RH  093%=      5-min Rain = 0
KCH1 251058Z 31003KT 19/18 A2993 RMK A01 T01860175  RH  093%=      5-min Rain = 0
KCH1 251059Z 31004KT 19/17 A2993 RMK A01 T01860174  RH  093%=      5-min Rain = 0
KCH1 251100Z 30004KT 19/17 A2993 RMK A01 T01850174  RH  093%=      5-min Rain = 0
KCH1 251101Z 30004KT 19/17 A2993 RMK A01 T01850174  RH  093%=      5-min Rain = 0
KCH1 251102Z 29003KT 18/17 A2993 RMK A01 T01840174  RH  094%=      5-min Rain = 0
KCH1 251103Z 28003KT 18/17 A2994 RMK A01 T01840174  RH  094%=      5-min Rain = 0
KCH1 251104Z 29003KT 18/17 A2994 RMK A01 T01830174  RH  094%=      5-min Rain = 0
KCH1 251105Z 29003KT 18/18 A2994 RMK A01 T01830175  RH  095%=      5-min Rain = 0
KCH1 251106Z 30003KT 18/18 A2994 RMK A01 T01830176  RH  096%=      5-min Rain = 0
KCH1 251107Z 29002KT 18/18 A2994 RMK A01 T01830176  RH  096%=      5-min Rain = 0
KCH1 251108Z 29003KT 18/18 A2994 RMK A01 T01830176  RH  096%=      5-min Rain = 0
KCH1 251109Z 29004KT 18/18 A2994 RMK A01 T01820177  RH  096%=      5-min Rain = 0
KCH1 251110Z 28004KT 18/18 A2994 RMK A01 T01820177  RH  097%=      5-min Rain = 0
KCH1 251111Z 29004KT 18/18 A2994 RMK A01 T01820177  RH  097%=      5-min Rain = 0
KCH1 251112Z 29005KT 18/18 A2994 RMK A01 T01820179  RH  098%=      5-min Rain = 0
KCH1 251113Z 28005KT 18/18 A2994 RMK A01 T01830180  RH  098%=      5-min Rain = 0
KCH1 251114Z 29004KT 18/18 A2994 RMK A01 T01840182  RH  098%=      5-min Rain = 0
KCH1 251115Z 29004KT 19/18 A2994 RMK A01 T01850182  RH  098%=      5-min Rain = 0
KCH1 251116Z 29005KT 19/18 A2994 RMK A01 T01850182  RH  098%=      5-min Rain = 0
KCH1 251117Z 28004KT 19/18 A2994 RMK A01 T01850182  RH  098%=      5-min Rain = 0
KCH1 251118Z 29005KT 19/18 A2994 RMK A01 T01850182  RH  098%=      5-min Rain = 0
KCH1 251119Z 28004KT 19/18 A2995 RMK A01 T01850182  RH  098%=      5-min Rain = 0
KCH1 251120Z 29004KT 19/18 A2995 RMK A01 T01850182  RH  098%=      5-min Rain = 0
KCH1 251121Z 30003KT 19/18 A2994 RMK A01 T01860182  RH  098%=      5-min Rain = 0
KCH1 251122Z 29003KT 19/18 A2994 RMK A01 T01860182  RH  098%=      5-min Rain = 0
KCH1 251123Z 29003KT 19/18 A2994 RMK A01 T01870183  RH  098%=      5-min Rain = 0
KCH1 251124Z 29003KT 19/18 A2994 RMK A01 T01860182  RH  097%=      5-min Rain = 0
KCH1 251125Z 31003KT 19/18 A2994 RMK A01 T01860181  RH  097%=      5-min Rain = 0
KCH1 251126Z 31003KT 19/18 A2994 RMK A01 T01850181  RH  097%=      5-min Rain = 0
KCH1 251127Z 31002KT 19/18 A2994 RMK A01 T01850181  RH  097%=      5-min Rain = 0
KCH1 251128Z 31003KT 19/18 A2995 RMK A01 T01850180  RH  097%=      5-min Rain = 0
KCH1 251129Z 31003KT 18/18 A2995 RMK A01 T01840180  RH  097%=      5-min Rain = 0
KCH1 251130Z 31002KT 18/18 A2995 RMK A01 T01840180  RH  097%=      5-min Rain = 0
KCH1 251131Z 31003KT 18/18 A2995 RMK A01 T01840180  RH  098%=      5-min Rain = 0
KCH1 251132Z 31003KT 18/18 A2995 RMK A01 T01830180  RH  098%=      5-min Rain = 0
KCH1 251133Z 31002KT 18/18 A2994 RMK A01 T01830180  RH  098%=      5-min Rain = 0
KCH1 251134Z 30003KT 18/18 A2995 RMK A01 T01830180  RH  098%=      5-min Rain = 0
KCH1 251135Z 31004KT 18/18 A2995 RMK A01 T01830180  RH  098%=      5-min Rain = 0
KCH1 251136Z 31003KT 18/18 A2994 RMK A01 T01830180  RH  098%=      5-min Rain = 0
KCH1 251137Z 32003KT 18/18 A2994 RMK A01 T01830180  RH  098%=      5-min Rain = 0
KCH1 251138Z 32003KT 18/18 A2994 RMK A01 T01830180  RH  098%=      5-min Rain = 0
KCH1 251139Z 31003KT 18/18 A2994 RMK A01 T01820179  RH  098%=      5-min Rain = 0
KCH1 251140Z 31003KT 18/18 A2995 RMK A01 T01820179  RH  098%=      5-min Rain = 0
KCH1 251141Z 31003KT 18/18 A2995 RMK A01 T01820179  RH  098%=      5-min Rain = 0
KCH1 251142Z 31002KT 18/18 A2995 RMK A01 T01820179  RH  098%=      5-min Rain = 0
KCH1 251143Z 32002KT 18/18 A2995 RMK A01 T01820178  RH  098%=      5-min Rain = 0
KCH1 251144Z 33002KT 18/18 A2995 RMK A01 T01820178  RH  097%=      5-min Rain = 0
KCH1 251145Z 33002KT 18/18 A2995 RMK A01 T01820178  RH  097%=      5-min Rain = 0
KCH1 251146Z 32002KT 18/18 A2995 RMK A01 T01820177  RH  097%=      5-min Rain = 0
KCH1 251147Z 31002KT 18/18 A2995 RMK A01 T01820177  RH  097%=      5-min Rain = 0
KCH1 251148Z 31003KT 18/18 A2995 RMK A01 T01820175  RH  096%=      5-min Rain = 0
KCH1 251149Z 30003KT 18/17 A2995 RMK A01 T01820174  RH  095%=      5-min Rain = 0
KCH1 251150Z 31004KT 18/17 A2995 RMK A01 T01820173  RH  094%=      5-min Rain = 0
KCH1 251151Z 32004KT 18/17 A2995 RMK A01 T01820171  RH  093%=      5-min Rain = 0
KCH1 251152Z 31004KT 18/17 A2995 RMK A01 T01820170  RH  092%=      5-min Rain = 0
KCH1 251153Z 32004KT 18/17 A2995 RMK A01 T01830169  RH  092%=      5-min Rain = 0
KCH1 251154Z 31004KT 18/17 A2995 RMK A01 T01830169  RH  092%=      5-min Rain = 0
KCH1 251155Z 30005KT 18/17 A2995 RMK A01 T01830169  RH  092%=      5-min Rain = 0
KCH1 251156Z 30004KT 18/17 A2995 RMK A01 T01820169  RH  092%=      5-min Rain = 0
KCH1 251157Z 29004KT 18/17 A2995 RMK A01 T01820169  RH  092%=      5-min Rain = 0
KCH1 251158Z 30004KT 18/17 A2995 RMK A01 T01830170  RH  092%=      5-min Rain = 0
KCH1 251159Z 30004KT 18/17 A2995 RMK A01 T01830171  RH  092%=      5-min Rain = 0
KCH1 251200Z 29004KT 18/17 A2995 RMK A01 T01840171  RH  092%=      5-min Rain = 0
KCH1 251201Z 30003KT 19/17 A2995 RMK A01 T01850172  RH  092%=      5-min Rain = 0
KCH1 251202Z 31004KT 19/17 A2996 RMK A01 T01850172  RH  092%=      5-min Rain = 0
KCH1 251203Z 32003KT 19/17 A2996 RMK A01 T01860172  RH  092%=      5-min Rain = 0
KCH1 251204Z 31003KT 19/17 A2996 RMK A01 T01860172  RH  091%=      5-min Rain = 0
KCH1 251205Z 31003KT 19/17 A2996 RMK A01 T01860171  RH  091%=      5-min Rain = 0
KCH1 251206Z 32003KT 19/17 A2996 RMK A01 T01870171  RH  091%=      5-min Rain = 0
KCH1 251207Z 33003KT 19/17 A2996 RMK A01 T01870171  RH  090%=      5-min Rain = 0
KCH1 251208Z 34003KT 19/17 A2996 RMK A01 T01880171  RH  090%=      5-min Rain = 0
KCH1 251209Z 34003KT 19/17 A2996 RMK A01 T01880171  RH  090%=      5-min Rain = 0
KCH1 251210Z 34003KT 19/17 A2996 RMK A01 T01880171  RH  090%=      5-min Rain = 0
KCH1 251211Z 34003KT 19/17 A2996 RMK A01 T01880169  RH  088%=      5-min Rain = 0
KCH1 251212Z 34003KT 19/17 A2997 RMK A01 T01880168  RH  088%=      5-min Rain = 0
KCH1 251213Z 35002KT 19/17 A2997 RMK A01 T01880168  RH  088%=      5-min Rain = 0
KCH1 251214Z 36003KT 19/17 A2997 RMK A01 T01880167  RH  087%=      5-min Rain = 0
KCH1 251215Z 35002KT 19/17 A2997 RMK A01 T01890167  RH  087%=      5-min Rain = 0
KCH1 251216Z 34002KT 19/17 A2997 RMK A01 T01890167  RH  087%=      5-min Rain = 0
KCH1 251217Z 35003KT 19/17 A2997 RMK A01 T01890166  RH  087%=      5-min Rain = 0
KCH1 251218Z 34003KT 19/17 A2997 RMK A01 T01890165  RH  086%=      5-min Rain = 0
KCH1 251219Z 34002KT 19/17 A2997 RMK A01 T01890166  RH  086%=      5-min Rain = 0
KCH1 251220Z 33003KT 19/17 A2997 RMK A01 T01900166  RH  086%=      5-min Rain = 0
KCH1 251221Z 33002KT 19/17 A2997 RMK A01 T01900166  RH  086%=      5-min Rain = 0
KCH1 251222Z 31002KT 19/17 A2997 RMK A01 T01900166  RH  086%=      5-min Rain = 0
KCH1 251223Z 30002KT 19/17 A2997 RMK A01 T01900166  RH  086%=      5-min Rain = 0
KCH1 251224Z 31003KT 19/17 A2997 RMK A01 T01900165  RH  086%=      5-min Rain = 0
KCH1 251225Z 29002KT 19/17 A2997 RMK A01 T01910166  RH  086%=      5-min Rain = 0
KCH1 251226Z 29003KT 19/17 A2997 RMK A01 T01910167  RH  086%=      5-min Rain = 0
KCH1 251227Z 27002KT 19/17 A2997 RMK A01 T01910168  RH  086%=      5-min Rain = 0
KCH1 251228Z 26002KT 19/17 A2997 RMK A01 T01910167  RH  086%=      5-min Rain = 0
KCH1 251229Z 27003KT 19/17 A2997 RMK A01 T01910168  RH  086%=      5-min Rain = 0
KCH1 251230Z 26003KT 19/17 A2997 RMK A01 T01920169  RH  086%=      5-min Rain = 0
KCH1 251231Z 26003KT 19/17 A2997 RMK A01 T01920169  RH  087%=      5-min Rain = 0
KCH1 251232Z 26002KT 19/17 A2997 RMK A01 T01920170  RH  087%=      5-min Rain = 0
KCH1 251233Z 27004KT 19/17 A2997 RMK A01 T01920171  RH  088%=      5-min Rain = 0
KCH1 251234Z 28004KT 19/17 A2997 RMK A01 T01930172  RH  088%=      5-min Rain = 0
KCH1 251235Z 29004KT 19/17 A2997 RMK A01 T01940172  RH  087%=      5-min Rain = 0
KCH1 251236Z 30004KT 20/17 A2997 RMK A01 T01960172  RH  086%=      5-min Rain = 0
KCH1 251237Z 30003KT 20/17 A2997 RMK A01 T01980172  RH  085%=      5-min Rain = 0
KCH1 251238Z 30004KT 20/17 A2997 RMK A01 T02000170  RH  083%=      5-min Rain = 0
KCH1 251239Z 30003KT 20/17 A2997 RMK A01 T02010171  RH  083%=      5-min Rain = 0
KCH1 251240Z 30003KT 20/17 A2997 RMK A01 T02020170  RH  082%=      5-min Rain = 0
KCH1 251241Z 31003KT 20/17 A2997 RMK A01 T02030171  RH  081%=      5-min Rain = 0
KCH1 251242Z 32002KT 20/17 A2997 RMK A01 T02040171  RH  081%=      5-min Rain = 0
KCH1 251243Z 33002KT 21/17 A2997 RMK A01 T02050171  RH  081%=      5-min Rain = 0
KCH1 251244Z 32001KT 21/17 A2998 RMK A01 T02060174  RH  082%=      5-min Rain = 0
KCH1 251245Z 34002KT 21/18 A2998 RMK A01 T02070178  RH  084%=      5-min Rain = 0
KCH1 251246Z 02001KT 21/18 A2998 RMK A01 T02070181  RH  085%=      5-min Rain = 0
KCH1 251247Z 09002KT 21/18 A2998 RMK A01 T02060180  RH  085%=      5-min Rain = 0
KCH1 251248Z 09002KT 21/18 A2998 RMK A01 T02050180  RH  086%=      5-min Rain = 0
KCH1 251249Z 09002KT 20/18 A2998 RMK A01 T02030181  RH  087%=      5-min Rain = 0
KCH1 251250Z 09002KT 20/18 A2998 RMK A01 T02030181  RH  087%=      5-min Rain = 0
KCH1 251251Z 10002KT 20/18 A2998 RMK A01 T02030180  RH  087%=      5-min Rain = 0
KCH1 251252Z 09002KT 20/18 A2998 RMK A01 T02020180  RH  087%=      5-min Rain = 0
KCH1 251253Z 08002KT 20/18 A2998 RMK A01 T02030181  RH  087%=      5-min Rain = 0
KCH1 251254Z 07001KT 20/18 A2998 RMK A01 T02030176  RH  085%=      5-min Rain = 0
KCH1 251255Z 05001KT 20/18 A2998 RMK A01 T02040178  RH  085%=      5-min Rain = 0
KCH1 251256Z 06002KT 20/18 A2998 RMK A01 T02040178  RH  085%=      5-min Rain = 0
KCH1 251257Z 07002KT 21/18 A2998 RMK A01 T02050177  RH  084%=      5-min Rain = 0
KCH1 251258Z 06002KT 21/18 A2998 RMK A01 T02050178  RH  084%=      5-min Rain = 0
KCH1 251259Z 07003KT 21/18 A2998 RMK A01 T02050179  RH  085%=      5-min Rain = 0
KCH1 251300Z 07003KT 21/18 A2998 RMK A01 T02060179  RH  085%=      5-min Rain = 0
KCH1 251301Z 07002KT 21/18 A2998 RMK A01 T02070181  RH  085%=      5-min Rain = 0
KCH1 251302Z 07003KT 21/18 A2998 RMK A01 T02080183  RH  086%=      5-min Rain = 0
KCH1 251303Z 05003KT 21/18 A2998 RMK A01 T02090181  RH  084%=      5-min Rain = 0
KCH1 251304Z 05003KT 21/18 A2998 RMK A01 T02090182  RH  084%=      5-min Rain = 0
KCH1 251305Z 05003KT 21/18 A2998 RMK A01 T02100184  RH  085%=      5-min Rain = 0
KCH1 251306Z 04003KT 21/18 A2998 RMK A01 T02110183  RH  084%=      5-min Rain = 0
KCH1 251307Z 02001KT 21/18 A2998 RMK A01 T02120182  RH  083%=      5-min Rain = 0
KCH1 251308Z 03002KT 21/18 A2998 RMK A01 T02120180  RH  082%=      5-min Rain = 0
KCH1 251309Z 03003KT 21/18 A2998 RMK A01 T02130180  RH  081%=      5-min Rain = 0
KCH1 251310Z 04004KT 22/18 A2998 RMK A01 T02150177  RH  079%=      5-min Rain = 0
KCH1 251311Z 03004KT 22/17 A2998 RMK A01 T02160174  RH  077%=      5-min Rain = 0
KCH1 251312Z 04005KT 22/17 A2998 RMK A01 T02160172  RH  076%=      5-min Rain = 0
KCH1 251313Z 04004KT 22/17 A2998 RMK A01 T02170173  RH  076%=      5-min Rain = 0
KCH1 251314Z 03003KT 22/17 A2998 RMK A01 T02170173  RH  076%=      5-min Rain = 0
KCH1 251315Z 05005KT 22/18 A2998 RMK A01 T02170175  RH  077%=      5-min Rain = 0
KCH1 251316Z 05005KT 22/18 A2998 RMK A01 T02180179  RH  078%=      5-min Rain = 0
KCH1 251317Z 06006KT 22/17 A2998 RMK A01 T02180173  RH  076%=      5-min Rain = 0
KCH1 251318Z 05005KT 22/17 A2998 RMK A01 T02170173  RH  076%=      5-min Rain = 0
KCH1 251319Z 05004KT 22/17 A2998 RMK A01 T02170173  RH  076%=      5-min Rain = 0
KCH1 251320Z 04005KT 22/18 A2998 RMK A01 T02170175  RH  077%=      5-min Rain = 0
KCH1 251321Z 04003KT 22/17 A2998 RMK A01 T02180173  RH  076%=      5-min Rain = 0
KCH1 251322Z 03002KT 22/17 A2998 RMK A01 T02180174  RH  076%=      5-min Rain = 0
KCH1 251323Z 03004KT 22/18 A2998 RMK A01 T02200178  RH  077%=      5-min Rain = 0
KCH1 251324Z 02005KT 22/18 A2998 RMK A01 T02210176  RH  076%=      5-min Rain = 0
KCH1 251325Z 03004KT 22/17 A2998 RMK A01 T02220174  RH  074%=      5-min Rain = 0
KCH1 251326Z 02005KT 22/17 A2998 RMK A01 T02230172  RH  073%=      5-min Rain = 0
KCH1 251327Z 02003KT 22/17 A2998 RMK A01 T02230173  RH  073%=      5-min Rain = 0
KCH1 251328Z 02005KT 22/17 A2998 RMK A01 T02240173  RH  073%=      5-min Rain = 0
KCH1 251329Z 03005KT 23/17 A2998 RMK A01 T02250170  RH  071%=      5-min Rain = 0
KCH1 251330Z 02004KT 23/17 A2998 RMK A01 T02250170  RH  071%=      5-min Rain = 0
KCH1 251331Z 02005KT 23/17 A2998 RMK A01 T02260174  RH  072%=      5-min Rain = 0
KCH1 251332Z 03006KT 23/17 A2999 RMK A01 T02260172  RH  071%=      5-min Rain = 0
KCH1 251333Z 03005KT 23/17 A2999 RMK A01 T02270166  RH  069%=      5-min Rain = 0
KCH1 251334Z 03006KT 23/17 A2999 RMK A01 T02270169  RH  070%=      5-min Rain = 0
KCH1 251335Z 03007KT 23/17 A2998 RMK A01 T02260170  RH  071%=      5-min Rain = 0
KCH1 251336Z 03007KT 23/17 A2998 RMK A01 T02260169  RH  070%=      5-min Rain = 0
KCH1 251337Z 03006KT 23/17 A2999 RMK A01 T02260169  RH  070%=      5-min Rain = 0
KCH1 251338Z 01004KT 23/17 A2999 RMK A01 T02260169  RH  070%=      5-min Rain = 0
KCH1 251339Z 01006KT 23/17 A2999 RMK A01 T02260170  RH  071%=      5-min Rain = 0
KCH1 251340Z 02005KT 23/17 A2999 RMK A01 T02260172  RH  071%=      5-min Rain = 0
KCH1 251341Z 02006KT 23/17 A2999 RMK A01 T02260171  RH  071%=      5-min Rain = 0
KCH1 251342Z 03005KT 23/17 A2999 RMK A01 T02270172  RH  071%=      5-min Rain = 0
KCH1 251343Z 03003KT 23/18 A2999 RMK A01 T02270175  RH  072%=      5-min Rain = 0
KCH1 251344Z 04005KT 23/18 A2999 RMK A01 T02290176  RH  072%=      5-min Rain = 0
KCH1 251345Z 03006KT 23/17 A2999 RMK A01 T02300173  RH  070%=      5-min Rain = 0
KCH1 251346Z 03003KT 23/17 A2999 RMK A01 T02310173  RH  070%=      5-min Rain = 0
KCH1 251347Z 02004KT 23/17 A2999 RMK A01 T02310173  RH  069%=      5-min Rain = 0
KCH1 251348Z 02002KT 23/17 A2999 RMK A01 T02320172  RH  069%=      5-min Rain = 0
KCH1 251349Z 02002KT 23/17 A2999 RMK A01 T02320168  RH  067%=      5-min Rain = 0
KCH1 251350Z 03004KT 23/17 A2999 RMK A01 T02320174  RH  070%=      5-min Rain = 0
KCH1 251351Z 03002KT 23/17 A2999 RMK A01 T02340173  RH  069%=      5-min Rain = 0
KCH1 251352Z 01003KT 24/17 A2999 RMK A01 T02350172  RH  068%=      5-min Rain = 0
KCH1 251353Z 03003KT 24/17 A2999 RMK A01 T02360172  RH  067%=      5-min Rain = 0
KCH1 251354Z 03003KT 24/17 A2999 RMK A01 T02360170  RH  067%=      5-min Rain = 0
KCH1 251355Z 02002KT 24/18 A2999 RMK A01 T02350176  RH  069%=      5-min Rain = 0
KCH1 251356Z 02003KT 24/17 A2999 RMK A01 T02370173  RH  068%=      5-min Rain = 0
KCH1 251357Z 03003KT 24/17 A2999 RMK A01 T02370171  RH  066%=      5-min Rain = 0
KCH1 251358Z 01003KT 24/17 A2999 RMK A01 T02370173  RH  067%=      5-min Rain = 0
KCH1 251359Z 02002KT 24/17 A2999 RMK A01 T02370172  RH  067%=      5-min Rain = 0
KCH1 251400Z 03002KT 24/18 A2999 RMK A01 T02370176  RH  069%=      5-min Rain = 0
KCH1 251401Z 03002KT 24/18 A2999 RMK A01 T02380175  RH  068%=      5-min Rain = 0
KCH1 251402Z 02003KT 24/18 A2999 RMK A01 T02390178  RH  069%=      5-min Rain = 0
KCH1 251403Z 02004KT 24/17 A2999 RMK A01 T02410172  RH  065%=      5-min Rain = 0
KCH1 251404Z 02002KT 24/17 A2999 RMK A01 T02410172  RH  065%=      5-min Rain = 0
KCH1 251405Z 00003KT 24/17 A2999 RMK A01 T02400168  RH  064%=      5-min Rain = 0
KCH1 251406Z 01003KT 24/17 A2999 RMK A01 T02370169  RH  065%=      5-min Rain = 0
KCH1 251407Z 01004KT 24/17 A2999 RMK A01 T02370171  RH  066%=      5-min Rain = 0
KCH1 251408Z 34002KT 24/17 A2999 RMK A01 T02380172  RH  067%=      5-min Rain = 0
KCH1 251409Z 32002KT 24/17 A2999 RMK A01 T02390174  RH  067%=      5-min Rain = 0
KCH1 251410Z 32003KT 24/17 A30 RMK A01 T02390170  RH  065%=      5-min Rain = 0
KCH1 251411Z 35002KT 24/17 A30 RMK A01 T02390172  RH  066%=      5-min Rain = 0
KCH1 251412Z 00001KT 24/17 A30 RMK A01 T02400170  RH  065%=      5-min Rain = 0
KCH1 251413Z 00000KT 24/17 A30 RMK A01 T02400166  RH  063%=      5-min Rain = 0
KCH1 251414Z 09000KT 24/17 A30 RMK A01 T02420165  RH  062%=      5-min Rain = 0
KCH1 251415Z 10001KT 24/17 A30 RMK A01 T02440165  RH  062%=      5-min Rain = 0
KCH1 251416Z 14000KT 24/17 A3001 RMK A01 T02440166  RH  062%=      5-min Rain = 0
KCH1 251417Z 00000KT 24/17 A3001 RMK A01 T02440170  RH  063%=      5-min Rain = 0
KCH1 251418Z 16000KT 25/17 A3001 RMK A01 T02450172  RH  064%=      5-min Rain = 0
KCH1 251419Z 24001KT 25/18 A3001 RMK A01 T02470176  RH  065%=      5-min Rain = 0
KCH1 251420Z 25002KT 25/17 A3001 RMK A01 T02480173  RH  063%=      5-min Rain = 0
KCH1 251421Z 24003KT 25/17 A3001 RMK A01 T02460171  RH  063%=      5-min Rain = 0
KCH1 251422Z 23004KT 24/17 A3001 RMK A01 T02440168  RH  063%=      5-min Rain = 0
KCH1 251423Z 26003KT 24/17 A3001 RMK A01 T02410171  RH  065%=      5-min Rain = 0
KCH1 251424Z 27003KT 24/17 A3001 RMK A01 T02400169  RH  064%=      5-min Rain = 0
KCH1 251425Z 29002KT 24/16 A3001 RMK A01 T02400164  RH  063%=      5-min Rain = 0
KCH1 251426Z 24002KT 24/16 A3001 RMK A01 T02390164  RH  063%=      5-min Rain = 0
KCH1 251427Z 28002KT 24/17 A3001 RMK A01 T02390166  RH  064%=      5-min Rain = 0
KCH1 251428Z 31001KT 24/16 A3001 RMK A01 T02400163  RH  062%=      5-min Rain = 0
KCH1 251429Z 35002KT 24/17 A3001 RMK A01 T02400166  RH  063%=      5-min Rain = 0
KCH1 251430Z 33002KT 24/17 A3001 RMK A01 T02410168  RH  064%=      5-min Rain = 0
KCH1 251431Z 32001KT 24/17 A3001 RMK A01 T02430170  RH  064%=      5-min Rain = 0
KCH1 251432Z 31002KT 24/17 A3001 RMK A01 T02440169  RH  063%=      5-min Rain = 0
KCH1 251433Z 33002KT 24/17 A3001 RMK A01 T02440166  RH  062%=      5-min Rain = 0
KCH1 251434Z 34002KT 24/17 A3001 RMK A01 T02440165  RH  061%=      5-min Rain = 0
KCH1 251435Z 32001KT 24/16 A3001 RMK A01 T02430163  RH  061%=      5-min Rain = 0
KCH1 251436Z 31001KT 24/17 A3001 RMK A01 T02420169  RH  064%=      5-min Rain = 0
KCH1 251437Z 32003KT 24/17 A3001 RMK A01 T02440169  RH  063%=      5-min Rain = 0
KCH1 251438Z 32003KT 24/17 A3001 RMK A01 T02440165  RH  062%=      5-min Rain = 0
KCH1 251439Z 33001KT 24/17 A3001 RMK A01 T02430171  RH  064%=      5-min Rain = 0
KCH1 251440Z 35002KT 24/17 A3001 RMK A01 T02440170  RH  063%=      5-min Rain = 0
KCH1 251441Z 03002KT 25/17 A3001 RMK A01 T02450166  RH  062%=      5-min Rain = 0
KCH1 251442Z 33002KT 25/17 A3001 RMK A01 T02450169  RH  063%=      5-min Rain = 0
KCH1 251443Z 32002KT 25/17 A3001 RMK A01 T02450167  RH  062%=      5-min Rain = 0
KCH1 251444Z 30003KT 25/17 A3001 RMK A01 T02450171  RH  063%=      5-min Rain = 0
KCH1 251445Z 28003KT 25/17 A3001 RMK A01 T02450169  RH  063%=      5-min Rain = 0
KCH1 251446Z 30003KT 24/17 A3001 RMK A01 T02440169  RH  063%=      5-min Rain = 0
KCH1 251447Z 31003KT 24/17 A3001 RMK A01 T02440170  RH  063%=      5-min Rain = 0
KCH1 251448Z 33001KT 24/17 A3001 RMK A01 T02440170  RH  063%=      5-min Rain = 0
KCH1 251449Z 35001KT 24/17 A3001 RMK A01 T02440172  RH  064%=      5-min Rain = 0
KCH1 251450Z 32001KT 25/17 A3001 RMK A01 T02450171  RH  063%=      5-min Rain = 0
KCH1 251451Z 17001KT 25/17 A3002 RMK A01 T02460171  RH  063%=      5-min Rain = 0
KCH1 251452Z 16002KT 25/17 A3002 RMK A01 T02470171  RH  063%=      5-min Rain = 0
KCH1 251453Z 16004KT 25/18 A3002 RMK A01 T02490175  RH  064%=      5-min Rain = 0
KCH1 251454Z 13004KT 25/18 A3002 RMK A01 T02500175  RH  063%=      5-min Rain = 0
KCH1 251455Z 16003KT 25/18 A3002 RMK A01 T02510175  RH  063%=      5-min Rain = 0
KCH1 251456Z 16004KT 25/18 A3002 RMK A01 T02500175  RH  063%=      5-min Rain = 0
KCH1 251457Z 16003KT 25/18 A3002 RMK A01 T02500177  RH  064%=      5-min Rain = 0
KCH1 251458Z 16003KT 25/18 A3002 RMK A01 T02510178  RH  064%=      5-min Rain = 0
KCH1 251459Z 14005KT 25/17 A3002 RMK A01 T02520173  RH  062%=      5-min Rain = 0
KCH1 251500Z 14004KT 25/18 A3002 RMK A01 T02510176  RH  063%=      5-min Rain = 0
KCH1 251501Z 17005KT 25/18 A3002 RMK A01 T02510175  RH  063%=      5-min Rain = 0
KCH1 251502Z 17005KT 25/17 A3003 RMK A01 T02520173  RH  062%=      5-min Rain = 0
KCH1 251503Z 15004KT 25/18 A3003 RMK A01 T02500175  RH  063%=      5-min Rain = 0
KCH1 251504Z 16005KT 25/17 A3003 RMK A01 T02500174  RH  063%=      5-min Rain = 0
KCH1 251505Z 14004KT 25/17 A3003 RMK A01 T02500171  RH  061%=      5-min Rain = 0
KCH1 251506Z 13005KT 25/18 A3003 RMK A01 T02510175  RH  063%=      5-min Rain = 0
KCH1 251507Z 13005KT 25/17 A3003 RMK A01 T02510173  RH  062%=      5-min Rain = 0
KCH1 251508Z 11007KT 25/18 A3003 RMK A01 T02520177  RH  063%=      5-min Rain = 0
KCH1 251509Z 16006KT 25/18 A3003 RMK A01 T02530175  RH  062%=      5-min Rain = 0
KCH1 251510Z 17003KT 25/17 A3003 RMK A01 T02530168  RH  059%=      5-min Rain = 0
KCH1 251511Z 16002KT 25/17 A3003 RMK A01 T02510171  RH  061%=      5-min Rain = 0
KCH1 251512Z 13004KT 25/17 A3003 RMK A01 T02510174  RH  062%=      5-min Rain = 0
KCH1 251513Z 11004KT 25/17 A3003 RMK A01 T02510172  RH  061%=      5-min Rain = 0
KCH1 251514Z 11004KT 25/17 A3003 RMK A01 T02510173  RH  062%=      5-min Rain = 0
KCH1 251515Z 13003KT 25/17 A3003 RMK A01 T02520172  RH  061%=      5-min Rain = 0
KCH1 251516Z 15006KT 25/18 A3003 RMK A01 T02520178  RH  063%=      5-min Rain = 0
KCH1 251517Z 17006KT 25/18 A3003 RMK A01 T02540179  RH  063%=      5-min Rain = 0
KCH1 251518Z 16005KT 25/17 A3003 RMK A01 T02540174  RH  061%=      5-min Rain = 0
KCH1 251519Z 12004KT 25/18 A3003 RMK A01 T02540176  RH  062%=      5-min Rain = 0
KCH1 251520Z 12002KT 25/17 A3003 RMK A01 T02540172  RH  061%=      5-min Rain = 0
KCH1 251521Z 16005KT 25/18 A3003 RMK A01 T02540176  RH  062%=      5-min Rain = 0
KCH1 251522Z 16006KT 25/17 A3003 RMK A01 T02540171  RH  060%=      5-min Rain = 0
KCH1 251523Z 17005KT 25/18 A3003 RMK A01 T02530175  RH  062%=      5-min Rain = 0
KCH1 251524Z 14007KT 25/18 A3003 RMK A01 T02530177  RH  062%=      5-min Rain = 0
KCH1 251525Z 15006KT 25/17 A3003 RMK A01 T02540173  RH  061%=      5-min Rain = 0
KCH1 251526Z 16005KT 25/17 A3003 RMK A01 T02540172  RH  061%=      5-min Rain = 0
KCH1 251527Z 17003KT 25/17 A3003 RMK A01 T02530170  RH  060%=      5-min Rain = 0
KCH1 251528Z 20002KT 25/17 A3003 RMK A01 T02530168  RH  059%=      5-min Rain = 0
KCH1 251529Z 17002KT 25/17 A3003 RMK A01 T02520170  RH  061%=      5-min Rain = 0
KCH1 251530Z 12002KT 25/17 A3003 RMK A01 T02520169  RH  060%=      5-min Rain = 0
KCH1 251531Z 15002KT 25/18 A3003 RMK A01 T02530177  RH  063%=      5-min Rain = 0
KCH1 251532Z 16005KT 26/18 A3004 RMK A01 T02560178  RH  062%=      5-min Rain = 0
KCH1 251533Z 15006KT 26/18 A3004 RMK A01 T02570176  RH  061%=      5-min Rain = 0
KCH1 251534Z 15005KT 26/18 A3004 RMK A01 T02580178  RH  061%=      5-min Rain = 0
KCH1 251535Z 18005KT 26/19 A3004 RMK A01 T02590185  RH  063%=      5-min Rain = 0
KCH1 251536Z 18005KT 26/17 A3004 RMK A01 T02610169  RH  057%=      5-min Rain = 0
KCH1 251537Z 14004KT 26/17 A3004 RMK A01 T02570166  RH  057%=      5-min Rain = 0
KCH1 251538Z 14002KT 26/17 A3004 RMK A01 T02560165  RH  057%=      5-min Rain = 0
KCH1 251539Z 16006KT 26/17 A3004 RMK A01 T02550172  RH  060%=      5-min Rain = 0
KCH1 251540Z 17006KT 26/17 A3004 RMK A01 T02560170  RH  059%=      5-min Rain = 0
KCH1 251541Z 17007KT 26/18 A3004 RMK A01 T02560175  RH  061%=      5-min Rain = 0
KCH1 251542Z 15007KT 26/17 A3004 RMK A01 T02570170  RH  058%=      5-min Rain = 0
KCH1 251543Z 14006KT 26/17 A3004 RMK A01 T02570167  RH  058%=      5-min Rain = 0
KCH1 251544Z 14005KT 26/17 A3004 RMK A01 T02560170  RH  059%=      5-min Rain = 0
KCH1 251545Z 16006KT 26/17 A3004 RMK A01 T02560173  RH  060%=      5-min Rain = 0
KCH1 251546Z 18003KT 26/17 A3004 RMK A01 T02570173  RH  060%=      5-min Rain = 0
KCH1 251547Z 15005KT 26/18 A3004 RMK A01 T02580177  RH  061%=      5-min Rain = 0
KCH1 251548Z 14008KT 26/17 A3004 RMK A01 T02590174  RH  059%=      5-min Rain = 0
KCH1 251549Z 16008KT 26/17 A3004 RMK A01 T02590174  RH  059%=      5-min Rain = 0
KCH1 251550Z 18007KT 26/17 A3004 RMK A01 T02590172  RH  059%=      5-min Rain = 0
KCH1 251551Z 18008KT 26/17 A3004 RMK A01 T02580170  RH  058%=      5-min Rain = 0
KCH1 251552Z 16007KT 26/17 A3004 RMK A01 T02560172  RH  059%=      5-min Rain = 0
KCH1 251553Z 16006KT 26/17 A3004 RMK A01 T02570170  RH  059%=      5-min Rain = 0
KCH1 251554Z 15005KT 26/17 A3004 RMK A01 T02570170  RH  059%=      5-min Rain = 0
KCH1 251555Z 12005KT 26/18 A3004 RMK A01 T02570175  RH  060%=      5-min Rain = 0
KCH1 251556Z 13006KT 26/17 A3004 RMK A01 T02590174  RH  059%=      5-min Rain = 0
KCH1 251557Z 14005KT 26/17 A3004 RMK A01 T02600170  RH  058%=      5-min Rain = 0
KCH1 251558Z 11006KT 26/18 A3004 RMK A01 T02580175  RH  060%=      5-min Rain = 0
KCH1 251559Z 12006KT 26/18 A3004 RMK A01 T02590176  RH  060%=      5-min Rain = 0
KCH1 251600Z 12008KT 26/18 A3004 RMK A01 T02600175  RH  060%=      5-min Rain = 0
KCH1 251601Z 14007KT 26/17 A3004 RMK A01 T02600174  RH  059%=      5-min Rain = 0
KCH1 251602Z 17007KT 26/18 A3004 RMK A01 T02600175  RH  059%=      5-min Rain = 0
KCH1 251603Z 17007KT 26/17 A3004 RMK A01 T02600170  RH  058%=      5-min Rain = 0
KCH1 251604Z 18007KT 26/17 A3004 RMK A01 T02590170  RH  058%=      5-min Rain = 0
KCH1 251605Z 14007KT 26/17 A3004 RMK A01 T02580171  RH  059%=      5-min Rain = 0
KCH1 251606Z 16009KT 26/18 A3004 RMK A01 T02580176  RH  060%=      5-min Rain = 0
KCH1 251607Z 16008KT 26/17 A3004 RMK A01 T02600172  RH  058%=      5-min Rain = 0
KCH1 251608Z 17009KT 26/17 A3004 RMK A01 T02600169  RH  057%=      5-min Rain = 0
KCH1 251609Z 17009KT 26/17 A3004 RMK A01 T02590171  RH  058%=      5-min Rain = 0
KCH1 251610Z 18008KT 26/17 A3004 RMK A01 T02590168  RH  057%=      5-min Rain = 0
KCH1 251611Z 16007KT 26/17 A3004 RMK A01 T02580168  RH  058%=      5-min Rain = 0
KCH1 251612Z 17007KT 26/17 A3005 RMK A01 T02580170  RH  058%=      5-min Rain = 0
KCH1 251613Z 18005KT 26/17 A3005 RMK A01 T02580170  RH  058%=      5-min Rain = 0
KCH1 251614Z 19005KT 26/17 A3005 RMK A01 T02590167  RH  057%=      5-min Rain = 0
KCH1 251615Z 18003KT 26/17 A3005 RMK A01 T02580166  RH  057%=      5-min Rain = 0
KCH1 251616Z 17003KT 26/17 A3005 RMK A01 T02580170  RH  058%=      5-min Rain = 0
KCH1 251617Z 16007KT 26/18 A3005 RMK A01 T02590175  RH  060%=      5-min Rain = 0
KCH1 251618Z 16006KT 26/18 A3005 RMK A01 T02600177  RH  060%=      5-min Rain = 0
KCH1 251619Z 16010KT 26/18 A3005 RMK A01 T02620176  RH  059%=      5-min Rain = 0
KCH1 251620Z 17009KT 26/17 A3005 RMK A01 T02630170  RH  057%=      5-min Rain = 0
KCH1 251621Z 17008KT 26/17 A3005 RMK A01 T02610169  RH  057%=      5-min Rain = 0
KCH1 251622Z 17006KT 26/17 A3005 RMK A01 T02600172  RH  058%=      5-min Rain = 0
KCH1 251623Z 16007KT 26/17 A3005 RMK A01 T02600174  RH  059%=      5-min Rain = 0
KCH1 251624Z 17007KT 26/17 A3005 RMK A01 T02610170  RH  057%=      5-min Rain = 0
KCH1 251625Z 17006KT 26/17 A3005 RMK A01 T02600174  RH  059%=      5-min Rain = 0
KCH1 251626Z 18006KT 26/18 A3005 RMK A01 T02610176  RH  059%=      5-min Rain = 0
KCH1 251627Z 18006KT 26/17 A3005 RMK A01 T02620174  RH  058%=      5-min Rain = 0
KCH1 251628Z 18006KT 26/17 A3005 RMK A01 T02610171  RH  058%=      5-min Rain = 0
KCH1 251629Z 18006KT 26/18 A3005 RMK A01 T02590176  RH  060%=      5-min Rain = 0
KCH1 251630Z 16007G12KT 26/18 A3005 RMK A01 T02610183  RH  062%=      5-min Rain = 0
KCH1 251631Z 17008KT 26/17 A3005 RMK A01 T02630173  RH  057%=      5-min Rain = 0
KCH1 251632Z 15008KT 26/17 A3005 RMK A01 T02630173  RH  058%=      5-min Rain = 0
KCH1 251633Z 15007KT 26/18 A3005 RMK A01 T02630177  RH  059%=      5-min Rain = 0
KCH1 251634Z 18007KT 27/18 A3005 RMK A01 T02650180  RH  059%=      5-min Rain = 0
KCH1 251635Z 18007KT 27/18 A3005 RMK A01 T02670175  RH  057%=      5-min Rain = 0
KCH1 251636Z 18008KT 27/18 A3005 RMK A01 T02660175  RH  058%=      5-min Rain = 0
KCH1 251637Z 17006KT 27/18 A3005 RMK A01 T02650175  RH  058%=      5-min Rain = 0
KCH1 251638Z 16009KT 26/18 A3005 RMK A01 T02640177  RH  059%=      5-min Rain = 0
KCH1 251639Z 17010KT 26/18 A3005 RMK A01 T02640175  RH  058%=      5-min Rain = 0
KCH1 251640Z 17010KT 26/18 A3005 RMK A01 T02630176  RH  059%=      5-min Rain = 0
KCH1 251641Z 17008KT 26/18 A3005 RMK A01 T02630176  RH  059%=      5-min Rain = 0
KCH1 251642Z 16008KT 26/18 A3005 RMK A01 T02640178  RH  059%=      5-min Rain = 0
KCH1 251643Z 15007KT 27/17 A3005 RMK A01 T02650172  RH  057%=      5-min Rain = 0
KCH1 251644Z 16005KT 26/18 A3005 RMK A01 T02630175  RH  058%=      5-min Rain = 0
KCH1 251645Z 17009KT 26/18 A3005 RMK A01 T02630176  RH  059%=      5-min Rain = 0
KCH1 251646Z 17009KT 26/18 A3005 RMK A01 T02640176  RH  058%=      5-min Rain = 0
KCH1 251647Z 17008KT 27/18 A3005 RMK A01 T02650175  RH  058%=      5-min Rain = 0
KCH1 251648Z 16005KT 27/18 A3005 RMK A01 T02650182  RH  060%=      5-min Rain = 0
KCH1 251649Z 15007KT 27/18 A3005 RMK A01 T02680184  RH  060%=      5-min Rain = 0
KCH1 251650Z 18007KT 27/18 A3005 RMK A01 T02710183  RH  059%=      5-min Rain = 0
KCH1 251651Z 18007KT 27/18 A3005 RMK A01 T02710178  RH  057%=      5-min Rain = 0
KCH1 251652Z 17008KT 27/18 A3005 RMK A01 T02690177  RH  057%=      5-min Rain = 0
KCH1 251653Z 19007KT 27/18 A3005 RMK A01 T02680176  RH  057%=      5-min Rain = 0
KCH1 251654Z 16007KT 27/18 A3005 RMK A01 T02670179  RH  058%=      5-min Rain = 0
KCH1 251655Z 16004KT 27/18 A3005 RMK A01 T02680176  RH  057%=      5-min Rain = 0
KCH1 251656Z 13004KT 27/18 A3005 RMK A01 T02680179  RH  058%=      5-min Rain = 0
KCH1 251657Z 13004KT 27/18 A3005 RMK A01 T02690180  RH  058%=      5-min Rain = 0
KCH1 251658Z 16002KT 27/18 A3005 RMK A01 T02700176  RH  056%=      5-min Rain = 0
KCH1 251659Z 14005KT 27/18 A3005 RMK A01 T02700178  RH  057%=      5-min Rain = 0
KCH1 251700Z 17005KT 27/18 A3005 RMK A01 T02710182  RH  058%=      5-min Rain = 0
KCH1 251701Z 15007KT 27/18 A3005 RMK A01 T02720182  RH  058%=      5-min Rain = 0
KCH1 251702Z 16011KT 27/18 A3005 RMK A01 T02730181  RH  057%=      5-min Rain = 0
KCH1 251703Z 17012KT 27/18 A3005 RMK A01 T02720175  RH  056%=      5-min Rain = 0
KCH1 251704Z 17012KT 27/18 A3005 RMK A01 T02680175  RH  057%=      5-min Rain = 0
KCH1 251705Z 18007KT 27/18 A3005 RMK A01 T02670177  RH  058%=      5-min Rain = 0
KCH1 251706Z 15006KT 27/18 A3005 RMK A01 T02670177  RH  058%=      5-min Rain = 0
KCH1 251707Z 13007KT 27/18 A3005 RMK A01 T02670179  RH  058%=      5-min Rain = 0
KCH1 251708Z 16004KT 27/18 A3005 RMK A01 T02690184  RH  059%=      5-min Rain = 0
KCH1 251709Z 15006KT 27/18 A3005 RMK A01 T02710182  RH  058%=      5-min Rain = 0
KCH1 251710Z 17006KT 27/18 A3005 RMK A01 T02720180  RH  057%=      5-min Rain = 0
KCH1 251711Z 16004KT 27/18 A3005 RMK A01 T02710176  RH  056%=      5-min Rain = 0
KCH1 251712Z 15003KT 27/18 A3005 RMK A01 T02700181  RH  058%=      5-min Rain = 0
KCH1 251713Z 15010KT 27/18 A3005 RMK A01 T02710183  RH  059%=      5-min Rain = 0
KCH1 251714Z 16010KT 27/18 A3005 RMK A01 T02710179  RH  057%=      5-min Rain = 0
KCH1 251715Z 18008KT 27/18 A3005 RMK A01 T02710178  RH  057%=      5-min Rain = 0
KCH1 251716Z 18006KT 27/18 A3005 RMK A01 T02710179  RH  057%=      5-min Rain = 0
KCH1 251717Z 18006KT 27/18 A3005 RMK A01 T02710175  RH  056%=      5-min Rain = 0
KCH1 251718Z 18004KT 27/18 A3005 RMK A01 T02690180  RH  058%=      5-min Rain = 0
KCH1 251719Z 21006KT 27/18 A3005 RMK A01 T02710183  RH  059%=      5-min Rain = 0
KCH1 251720Z 21006KT 27/18 A3005 RMK A01 T02710178  RH  057%=      5-min Rain = 0
KCH1 251721Z 16007KT 27/18 A3005 RMK A01 T02710179  RH  057%=      5-min Rain = 0
KCH1 251722Z 18007KT 27/18 A3005 RMK A01 T02710178  RH  057%=      5-min Rain = 0
KCH1 251723Z 18007KT 27/18 A3005 RMK A01 T02700182  RH  058%=      5-min Rain = 0
KCH1 251724Z 16008KT 27/18 A3005 RMK A01 T02720184  RH  059%=      5-min Rain = 0
KCH1 251725Z 16008KT 27/18 A3005 RMK A01 T02730182  RH  057%=      5-min Rain = 0
KCH1 251726Z 16007KT 27/18 A3005 RMK A01 T02730177  RH  056%=      5-min Rain = 0
KCH1 251727Z 16007KT 27/18 A3005 RMK A01 T02720180  RH  057%=      5-min Rain = 0
KCH1 251728Z 18010KT 27/18 A3005 RMK A01 T02720183  RH  058%=      5-min Rain = 0
KCH1 251729Z 20010KT 27/18 A3005 RMK A01 T02730180  RH  057%=      5-min Rain = 0
KCH1 251730Z 17009KT 27/18 A3005 RMK A01 T02730179  RH  056%=      5-min Rain = 0
KCH1 251731Z 16009KT 27/18 A3005 RMK A01 T02730175  RH  055%=      5-min Rain = 0
KCH1 251732Z 16007KT 27/18 A3005 RMK A01 T02730181  RH  057%=      5-min Rain = 0
KCH1 251733Z 15005KT 27/18 A3005 RMK A01 T02730175  RH  055%=      5-min Rain = 0
KCH1 251734Z 17004KT 27/18 A3005 RMK A01 T02730177  RH  056%=      5-min Rain = 0
KCH1 251735Z 18004KT 27/18 A3005 RMK A01 T02730181  RH  057%=      5-min Rain = 0
KCH1 251736Z 18006G11KT 28/18 A3005 RMK A01 T02750184  RH  057%=      5-min Rain = 0
KCH1 251737Z 18008KT 28/18 A3005 RMK A01 T02760180  RH  056%=      5-min Rain = 0
KCH1 251738Z 16012KT 28/18 A3005 RMK A01 T02760178  RH  055%=      5-min Rain = 0
KCH1 251739Z 15008KT 27/18 A3005 RMK A01 T02730178  RH  056%=      5-min Rain = 0
KCH1 251740Z 14008KT 27/18 A3005 RMK A01 T02730180  RH  057%=      5-min Rain = 0
KCH1 251741Z 14007KT 27/18 A3005 RMK A01 T02730179  RH  056%=      5-min Rain = 0
KCH1 251742Z 17008KT 27/18 A3005 RMK A01 T02740180  RH  057%=      5-min Rain = 0
KCH1 251743Z 16009KT 27/18 A3004 RMK A01 T02740179  RH  056%=      5-min Rain = 0
KCH1 251744Z 17009KT 27/18 A3004 RMK A01 T02740181  RH  057%=      5-min Rain = 0
KCH1 251745Z 17008KT 27/18 A3004 RMK A01 T02740177  RH  055%=      5-min Rain = 0
KCH1 251746Z 17007KT 27/18 A3004 RMK A01 T02740183  RH  058%=      5-min Rain = 0
KCH1 251747Z 21006KT 27/18 A3004 RMK A01 T02740183  RH  057%=      5-min Rain = 0
KCH1 251748Z 20007KT 28/18 A3004 RMK A01 T02760184  RH  057%=      5-min Rain = 0
KCH1 251749Z 20008KT 28/18 A3004 RMK A01 T02770181  RH  056%=      5-min Rain = 0
KCH1 251750Z 18009KT 28/18 A3004 RMK A01 T02770183  RH  056%=      5-min Rain = 0
KCH1 251751Z 19009KT 28/18 A3004 RMK A01 T02760175  RH  054%=      5-min Rain = 0
KCH1 251752Z 17007KT 27/18 A3005 RMK A01 T02730175  RH  055%=      5-min Rain = 0
KCH1 251753Z 16006KT 27/18 A3004 RMK A01 T02710176  RH  056%=      5-min Rain = 0
KCH1 251754Z 18006KT 27/18 A3004 RMK A01 T02720183  RH  058%=      5-min Rain = 0
KCH1 251755Z 16005KT 27/18 A3004 RMK A01 T02740183  RH  058%=      5-min Rain = 0
KCH1 251756Z 16005KT 28/19 A3004 RMK A01 T02770188  RH  058%=      5-min Rain = 0
KCH1 251757Z 17010KT 28/18 A3004 RMK A01 T02790183  RH  056%=      5-min Rain = 0
KCH1 251758Z 17011KT 28/18 A3004 RMK A01 T02790180  RH  055%=      5-min Rain = 0
KCH1 251759Z 18010KT 28/18 A3004 RMK A01 T02760181  RH  056%=      5-min Rain = 0
KCH1 251800Z 19008KT 28/18 A3004 RMK A01 T02750180  RH  056%=      5-min Rain = 0
KCH1 251801Z 21007KT 27/18 A3004 RMK A01 T02740179  RH  056%=      5-min Rain = 0
KCH1 251802Z 21007KT 27/18 A3004 RMK A01 T02740182  RH  057%=      5-min Rain = 0
KCH1 251803Z 17006KT 28/18 A3004 RMK A01 T02750183  RH  057%=      5-min Rain = 0
KCH1 251804Z 16006KT 28/18 A3004 RMK A01 T02750181  RH  056%=      5-min Rain = 0
KCH1 251805Z 16007KT 28/19 A3004 RMK A01 T02760188  RH  059%=      5-min Rain = 0
KCH1 251806Z 16008KT 28/18 A3004 RMK A01 T02780180  RH  055%=      5-min Rain = 0
KCH1 251807Z 14010G15KT 28/18 A3004 RMK A01 T02780184  RH  057%=      5-min Rain = 0
KCH1 251808Z 18012KT 28/18 A3004 RMK A01 T02780183  RH  056%=      5-min Rain = 0
KCH1 251809Z 19011KT 28/18 A3004 RMK A01 T02780181  RH  055%=      5-min Rain = 0
KCH1 251810Z 19010KT 28/18 A3004 RMK A01 T02770178  RH  055%=      5-min Rain = 0
KCH1 251811Z 19007KT 28/18 A3004 RMK A01 T02760181  RH  056%=      5-min Rain = 0
KCH1 251812Z 22006KT 28/18 A3004 RMK A01 T02760184  RH  057%=      5-min Rain = 0
KCH1 251813Z 18008KT 28/18 A3004 RMK A01 T02780183  RH  056%=      5-min Rain = 0
KCH1 251814Z 20009G14KT 28/18 A3004 RMK A01 T02790182  RH  056%=      5-min Rain = 0
KCH1 251815Z 20011KT 28/18 A3004 RMK A01 T02780180  RH  055%=      5-min Rain = 0
KCH1 251816Z 19007KT 28/18 A3004 RMK A01 T02770183  RH  056%=      5-min Rain = 0
KCH1 251817Z 17009KT 28/18 A3004 RMK A01 T02780182  RH  056%=      5-min Rain = 0
KCH1 251818Z 18007KT 28/18 A3004 RMK A01 T02780182  RH  056%=      5-min Rain = 0
KCH1 251819Z 17006KT 28/18 A3004 RMK A01 T02790183  RH  056%=      5-min Rain = 0
KCH1 251820Z 17005KT 28/18 A3004 RMK A01 T02800182  RH  055%=      5-min Rain = 0
KCH1 251821Z 19005KT 28/18 A3004 RMK A01 T02790182  RH  055%=      5-min Rain = 0
KCH1 251822Z 21008KT 28/18 A3004 RMK A01 T02800184  RH  056%=      5-min Rain = 0
KCH1 251823Z 22008KT 28/18 A3004 RMK A01 T02810181  RH  055%=      5-min Rain = 0
KCH1 251824Z 22006KT 28/18 A3004 RMK A01 T02810182  RH  055%=      5-min Rain = 0
KCH1 251825Z 19003KT 28/19 A3004 RMK A01 T02810185  RH  056%=      5-min Rain = 0
KCH1 251826Z 16007KT 28/19 A3004 RMK A01 T02820187  RH  056%=      5-min Rain = 0
KCH1 251827Z 17006KT 28/19 A3004 RMK A01 T02840192  RH  057%=      5-min Rain = 0
KCH1 251828Z 17008KT 29/19 A3004 RMK A01 T02860189  RH  056%=      5-min Rain = 0
KCH1 251829Z 18007KT 29/19 A3004 RMK A01 T02860186  RH  055%=      5-min Rain = 0
KCH1 251830Z 17007KT 29/19 A3004 RMK A01 T02850185  RH  054%=      5-min Rain = 0
KCH1 251831Z 18007KT 29/19 A3004 RMK A01 T02850186  RH  055%=      5-min Rain = 0
KCH1 251832Z 17006KT 28/18 A3003 RMK A01 T02840181  RH  054%=      5-min Rain = 0
KCH1 251833Z 17008KT 28/19 A3003 RMK A01 T02820185  RH  055%=      5-min Rain = 0
KCH1 251834Z 17008KT 28/19 A3003 RMK A01 T02820192  RH  058%=      5-min Rain = 0
KCH1 251835Z 18005KT 29/19 A3003 RMK A01 T02860188  RH  055%=      5-min Rain = 0
KCH1 251836Z 19005KT 29/19 A3003 RMK A01 T02860189  RH  056%=      5-min Rain = 0
KCH1 251837Z 18009KT 29/19 A3003 RMK A01 T02870188  RH  055%=      5-min Rain = 0
KCH1 251838Z 20009KT 29/19 A3003 RMK A01 T02870191  RH  056%=      5-min Rain = 0
KCH1 251839Z 21009KT 29/18 A3003 RMK A01 T02870183  RH  053%=      5-min Rain = 0
KCH1 251840Z 21009KT 29/18 A3003 RMK A01 T02850183  RH  054%=      5-min Rain = 0
KCH1 251841Z 21007KT 28/18 A3003 RMK A01 T02830182  RH  054%=      5-min Rain = 0
KCH1 251842Z 22008KT 28/18 A3003 RMK A01 T02820183  RH  055%=      5-min Rain = 0
KCH1 251843Z 19006KT 28/19 A3003 RMK A01 T02820186  RH  056%=      5-min Rain = 0
KCH1 251844Z 19010KT 28/18 A3003 RMK A01 T02820182  RH  055%=      5-min Rain = 0
KCH1 251845Z 20007KT 28/18 A3003 RMK A01 T02820182  RH  054%=      5-min Rain = 0
KCH1 251846Z 18008G13KT 28/18 A3003 RMK A01 T02820184  RH  055%=      5-min Rain = 0
KCH1 251847Z 15011KT 28/19 A3003 RMK A01 T02830191  RH  058%=      5-min Rain = 0
KCH1 251848Z 15011KT 29/19 A3003 RMK A01 T02850190  RH  056%=      5-min Rain = 0
KCH1 251849Z 16008KT 29/19 A3003 RMK A01 T02860189  RH  056%=      5-min Rain = 0
KCH1 251850Z 16007KT 29/19 A3003 RMK A01 T02860187  RH  055%=      5-min Rain = 0
KCH1 251851Z 15011KT 29/19 A3003 RMK A01 T02850190  RH  056%=      5-min Rain = 0
KCH1 251852Z 15013KT 29/19 A3003 RMK A01 T02850191  RH  056%=      5-min Rain = 0
KCH1 251853Z 18010KT 29/19 A3003 RMK A01 T02860189  RH  056%=      5-min Rain = 0
KCH1 251854Z 19007KT 29/18 A3003 RMK A01 T02860184  RH  054%=      5-min Rain = 0
KCH1 251855Z 21008KT 28/19 A3003 RMK A01 T02830187  RH  056%=      5-min Rain = 0
KCH1 251856Z 20007KT 28/19 A3003 RMK A01 T02830189  RH  057%=      5-min Rain = 0
KCH1 251857Z 16007KT 28/19 A3003 RMK A01 T02840192  RH  057%=      5-min Rain = 0
KCH1 251858Z 18008KT 29/19 A3003 RMK A01 T02860192  RH  057%=      5-min Rain = 0
KCH1 251859Z 19006KT 29/19 A3003 RMK A01 T02870194  RH  057%=      5-min Rain = 0
KCH1 251900Z 19009KT 29/19 A3003 RMK A01 T02880190  RH  055%=      5-min Rain = 0
KCH1 251901Z 17008KT 29/19 A3003 RMK A01 T02870192  RH  057%=      5-min Rain = 0
KCH1 251902Z 16006KT 29/20 A3003 RMK A01 T02870197  RH  058%=      5-min Rain = 0
KCH1 251903Z 16006KT 29/20 A3003 RMK A01 T02880197  RH  058%=      5-min Rain = 0
KCH1 251904Z 17008KT 29/20 A3003 RMK A01 T02900199  RH  058%=      5-min Rain = 0
KCH1 251905Z 17009KT 29/20 A3003 RMK A01 T02910195  RH  056%=      5-min Rain = 0
KCH1 251906Z 16008KT 29/19 A3003 RMK A01 T02900193  RH  056%=      5-min Rain = 0
KCH1 251907Z 18010KT 29/20 A3003 RMK A01 T02880195  RH  057%=      5-min Rain = 0
KCH1 251908Z 18008KT 29/19 A3003 RMK A01 T02870191  RH  056%=      5-min Rain = 0
KCH1 251909Z 17008KT 29/19 A3003 RMK A01 T02860192  RH  057%=      5-min Rain = 0
KCH1 251910Z 18007KT 29/19 A3002 RMK A01 T02850193  RH  057%=      5-min Rain = 0
KCH1 251911Z 16009KT 29/19 A3002 RMK A01 T02850194  RH  058%=      5-min Rain = 0
KCH1 251912Z 17009KT 29/20 A3002 RMK A01 T02870199  RH  059%=      5-min Rain = 0
KCH1 251913Z 16009KT 29/19 A3002 RMK A01 T02890191  RH  056%=      5-min Rain = 0
KCH1 251914Z 15009KT 29/20 A3002 RMK A01 T02880197  RH  058%=      5-min Rain = 0
KCH1 251915Z 16008KT 29/19 A3002 RMK A01 T02880191  RH  056%=      5-min Rain = 0
KCH1 251916Z 16009KT 29/20 A3002 RMK A01 T02870200  RH  059%=      5-min Rain = 0
KCH1 251917Z 16007KT 29/20 A3002 RMK A01 T02890195  RH  057%=      5-min Rain = 0
KCH1 251918Z 16007KT 29/20 A3002 RMK A01 T02890195  RH  057%=      5-min Rain = 0
KCH1 251919Z 14007KT 29/19 A3002 RMK A01 T02900194  RH  056%=      5-min Rain = 0
KCH1 251920Z 15006KT 29/20 A3002 RMK A01 T02890195  RH  057%=      5-min Rain = 0
KCH1 251921Z 18006KT 29/20 A3002 RMK A01 T02880195  RH  057%=      5-min Rain = 0
KCH1 251922Z 14004KT 29/20 A3002 RMK A01 T02890197  RH  058%=      5-min Rain = 0
KCH1 251923Z 17005KT 29/20 A3002 RMK A01 T02900196  RH  057%=      5-min Rain = 0
KCH1 251924Z 19003KT 29/19 A3001 RMK A01 T02910194  RH  056%=      5-min Rain = 0
KCH1 251925Z 19004KT 29/20 A3001 RMK A01 T02910198  RH  057%=      5-min Rain = 0
KCH1 251926Z 18006KT 29/20 A3001 RMK A01 T02920202  RH  058%=      5-min Rain = 0
KCH1 251927Z 17009KT 29/20 A3001 RMK A01 T02940199  RH  057%=      5-min Rain = 0
KCH1 251928Z 16009KT 29/20 A3002 RMK A01 T02940199  RH  056%=      5-min Rain = 0
KCH1 251929Z 15008KT 29/20 A3002 RMK A01 T02940199  RH  056%=      5-min Rain = 0
KCH1 251930Z 16008KT 29/20 A3001 RMK A01 T02940202  RH  058%=      5-min Rain = 0
KCH1 251931Z 16008KT 29/20 A3001 RMK A01 T02940199  RH  056%=      5-min Rain = 0
KCH1 251932Z 16010KT 30/20 A3001 RMK A01 T02950200  RH  057%=      5-min Rain = 0
KCH1 251933Z 16011KT 30/20 A3001 RMK A01 T02950197  RH  056%=      5-min Rain = 0
KCH1 251934Z 16010KT 29/20 A3001 RMK A01 T02940195  RH  055%=      5-min Rain = 0
KCH1 251935Z 16011KT 29/20 A3001 RMK A01 T02930196  RH  056%=      5-min Rain = 0
KCH1 251936Z 14007KT 29/19 A3001 RMK A01 T02910193  RH  055%=      5-min Rain = 0
KCH1 251937Z 14007KT 29/20 A3001 RMK A01 T02910201  RH  058%=      5-min Rain = 0
KCH1 251938Z 18008KT 29/20 A3001 RMK A01 T02940201  RH  057%=      5-min Rain = 0
KCH1 251939Z 19008KT 29/20 A3001 RMK A01 T02940195  RH  055%=      5-min Rain = 0
KCH1 251940Z 17008KT 29/20 A3001 RMK A01 T02940196  RH  055%=      5-min Rain = 0
KCH1 251941Z 17005KT 29/20 A3001 RMK A01 T02930197  RH  056%=      5-min Rain = 0
KCH1 251942Z 19010KT 29/20 A3001 RMK A01 T02940197  RH  056%=      5-min Rain = 0
KCH1 251943Z 18009KT 29/19 A3001 RMK A01 T02940194  RH  055%=      5-min Rain = 0
KCH1 251944Z 16011KT 29/20 A3001 RMK A01 T02940196  RH  056%=      5-min Rain = 0
KCH1 251945Z 17011KT 29/20 A3001 RMK A01 T02940196  RH  056%=      5-min Rain = 0
KCH1 251946Z 16011KT 29/19 A3001 RMK A01 T02940194  RH  055%=      5-min Rain = 0
KCH1 251947Z 17009KT 29/19 A3001 RMK A01 T02940194  RH  055%=      5-min Rain = 0
KCH1 251948Z 16009KT 29/19 A3001 RMK A01 T02940194  RH  055%=      5-min Rain = 0
KCH1 251949Z 17008KT 29/20 A3001 RMK A01 T02940197  RH  056%=      5-min Rain = 0
KCH1 251950Z 16007KT 29/20 A3001 RMK A01 T02940202  RH  058%=      5-min Rain = 0
KCH1 251951Z 17007KT 30/20 A3001 RMK A01 T02970199  RH  056%=      5-min Rain = 0
KCH1 251952Z 17009KT 30/20 A3001 RMK A01 T02970199  RH  056%=      5-min Rain = 0
KCH1 251953Z 16007KT 30/20 A3001 RMK A01 T02970202  RH  056%=      5-min Rain = 0
KCH1 251954Z 18006KT 30/20 A3001 RMK A01 T02980200  RH  056%=      5-min Rain = 0
KCH1 251955Z 17007KT 30/20 A3001 RMK A01 T02980199  RH  055%=      5-min Rain = 0
KCH1 251956Z 17006KT 30/20 A3001 RMK A01 T02970200  RH  056%=      5-min Rain = 0
KCH1 251957Z 16009KT 30/20 A3001 RMK A01 T02970201  RH  056%=      5-min Rain = 0
KCH1 251958Z 16010KT 30/20 A3001 RMK A01 T02970202  RH  057%=      5-min Rain = 0
KCH1 251959Z 16013KT 30/20 A3001 RMK A01 T02980199  RH  055%=      5-min Rain = 0
KCH1 252000Z 16009KT 30/20 A3001 RMK A01 T02970198  RH  055%=      5-min Rain = 0
KCH1 252001Z 16009KT 30/20 A3001 RMK A01 T02960200  RH  056%=      5-min Rain = 0
KCH1 252002Z 17011KT 30/20 A3001 RMK A01 T02960201  RH  057%=      5-min Rain = 0
KCH1 252003Z 16010KT 30/20 A3001 RMK A01 T02970196  RH  055%=      5-min Rain = 0
KCH1 252004Z 17010KT 30/20 A30 RMK A01 T02960195  RH  054%=      5-min Rain = 0
KCH1 252005Z 16007KT 30/20 A30 RMK A01 T02950197  RH  055%=      5-min Rain = 0
KCH1 252006Z 16008KT 30/20 A30 RMK A01 T02950197  RH  056%=      5-min Rain = 0
KCH1 252007Z 16008KT 30/20 A30 RMK A01 T02960198  RH  056%=      5-min Rain = 0
KCH1 252008Z 16007KT 30/21 A30 RMK A01 T02970205  RH  058%=      5-min Rain = 0
KCH1 252009Z 19007KT 30/20 A30 RMK A01 T02990198  RH  055%=      5-min Rain = 0
KCH1 252010Z 17008KT 30/20 A30 RMK A01 T02990197  RH  054%=      5-min Rain = 0
KCH1 252011Z 17005KT 30/20 A30 RMK A01 T02990196  RH  054%=      5-min Rain = 0
KCH1 252012Z 17008KT 30/20 A30 RMK A01 T02990201  RH  056%=      5-min Rain = 0
KCH1 252013Z 16007KT 30/20 A30 RMK A01 T02990198  RH  055%=      5-min Rain = 0
KCH1 252014Z 16010KT 30/20 A30 RMK A01 T03000202  RH  056%=      5-min Rain = 0
KCH1 252015Z 17009KT 30/20 A30 RMK A01 T03020199  RH  054%=      5-min Rain = 0
KCH1 252016Z 19007KT 30/20 A30 RMK A01 T03020200  RH  054%=      5-min Rain = 0
KCH1 252017Z 18009KT 30/20 A30 RMK A01 T03030200  RH  054%=      5-min Rain = 0
KCH1 252018Z 16009KT 30/20 A30 RMK A01 T03030203  RH  055%=      5-min Rain = 0
KCH1 252019Z 17008KT 30/20 A30 RMK A01 T03040200  RH  054%=      5-min Rain = 0
KCH1 252020Z 15008KT 30/20 A30 RMK A01 T03030204  RH  055%=      5-min Rain = 0
KCH1 252021Z 16008KT 30/20 A30 RMK A01 T03030199  RH  053%=      5-min Rain = 0
KCH1 252022Z 17007KT 30/20 A30 RMK A01 T03020197  RH  053%=      5-min Rain = 0
KCH1 252023Z 17006KT 30/20 A30 RMK A01 T03010198  RH  054%=      5-min Rain = 0
KCH1 252024Z 18006KT 30/20 A30 RMK A01 T03000200  RH  055%=      5-min Rain = 0
KCH1 252025Z 19009KT 30/20 A2999 RMK A01 T03000201  RH  055%=      5-min Rain = 0
KCH1 252026Z 17010KT 30/20 A2999 RMK A01 T03020199  RH  054%=      5-min Rain = 0
KCH1 252027Z 17009KT 30/20 A2999 RMK A01 T03030197  RH  053%=      5-min Rain = 0
KCH1 252028Z 15010KT 30/20 A30 RMK A01 T03030196  RH  053%=      5-min Rain = 0
KCH1 252029Z 16008KT 30/20 A2999 RMK A01 T03020196  RH  053%=      5-min Rain = 0
KCH1 252030Z 17007KT 30/20 A2999 RMK A01 T03010198  RH  054%=      5-min Rain = 0
KCH1 252031Z 18007KT 30/20 A2999 RMK A01 T03020196  RH  053%=      5-min Rain = 0
KCH1 252032Z 17008KT 30/20 A2999 RMK A01 T03020202  RH  055%=      5-min Rain = 0
KCH1 252033Z 17010KT 30/20 A2999 RMK A01 T03040196  RH  052%=      5-min Rain = 0
KCH1 252034Z 18007KT 30/20 A2999 RMK A01 T03030197  RH  053%=      5-min Rain = 0
KCH1 252035Z 17009KT 30/20 A2999 RMK A01 T03030199  RH  054%=      5-min Rain = 0
KCH1 252036Z 17007KT 30/20 A2999 RMK A01 T03030201  RH  054%=      5-min Rain = 0
KCH1 252037Z 15008KT 30/20 A2999 RMK A01 T03040195  RH  052%=      5-min Rain = 0
KCH1 252038Z 16009KT 30/20 A2999 RMK A01 T03040195  RH  052%=      5-min Rain = 0
KCH1 252039Z 16008KT 30/20 A2999 RMK A01 T03040197  RH  053%=      5-min Rain = 0
KCH1 252040Z 16010KT 30/19 A2999 RMK A01 T03040193  RH  051%=      5-min Rain = 0
KCH1 252041Z 15004KT 30/20 A2999 RMK A01 T03020195  RH  053%=      5-min Rain = 0
KCH1 252042Z 18006KT 30/19 A2999 RMK A01 T03020194  RH  052%=      5-min Rain = 0
KCH1 252043Z 15008KT 30/20 A2999 RMK A01 T03030199  RH  054%=      5-min Rain = 0
KCH1 252044Z 18008KT 31/20 A2999 RMK A01 T03060195  RH  052%=      5-min Rain = 0
KCH1 252045Z 20010KT 31/19 A2999 RMK A01 T03060189  RH  050%=      5-min Rain = 0
KCH1 252046Z 17008KT 30/19 A2999 RMK A01 T03040190  RH  051%=      5-min Rain = 0
KCH1 252047Z 18009KT 30/20 A2999 RMK A01 T03030195  RH  052%=      5-min Rain = 0
KCH1 252048Z 18008KT 30/20 A2999 RMK A01 T03030195  RH  052%=      5-min Rain = 0
KCH1 252049Z 18010KT 31/20 A2999 RMK A01 T03050197  RH  052%=      5-min Rain = 0
KCH1 252050Z 19012G17KT 31/19 A2999 RMK A01 T03070193  RH  051%=      5-min Rain = 0
KCH1 252051Z 19010KT 31/19 A2999 RMK A01 T03060193  RH  051%=      5-min Rain = 0
KCH1 252052Z 18009KT 31/19 A2999 RMK A01 T03060194  RH  051%=      5-min Rain = 0
KCH1 252053Z 17008KT 31/20 A2999 RMK A01 T03060200  RH  053%=      5-min Rain = 0
KCH1 252054Z 17009KT 31/20 A2999 RMK A01 T03070196  RH  052%=      5-min Rain = 0
KCH1 252055Z 17009KT 31/20 A2999 RMK A01 T03070196  RH  051%=      5-min Rain = 0
KCH1 252056Z 18009KT 31/19 A2999 RMK A01 T03070192  RH  050%=      5-min Rain = 0
KCH1 252057Z 17007KT 31/19 A2999 RMK A01 T03050193  RH  051%=      5-min Rain = 0
KCH1 252058Z 16006KT 31/19 A2999 RMK A01 T03050191  RH  051%=      5-min Rain = 0
KCH1 252059Z 16009KT 30/20 A2998 RMK A01 T03040195  RH  052%=      5-min Rain = 0
KCH1 252100Z 17008KT 31/20 A2998 RMK A01 T03060196  RH  052%=      5-min Rain = 0
KCH1 252101Z 16007KT 31/19 A2998 RMK A01 T03070191  RH  050%=      5-min Rain = 0
KCH1 252102Z 17012KT 31/20 A2998 RMK A01 T03070197  RH  052%=      5-min Rain = 0
KCH1 252103Z 17008KT 31/20 A2998 RMK A01 T03060198  RH  053%=      5-min Rain = 0
KCH1 252104Z 17008KT 31/20 A2998 RMK A01 T03080203  RH  054%=      5-min Rain = 0
KCH1 252105Z 16009KT 31/20 A2998 RMK A01 T03100202  RH  053%=      5-min Rain = 0
KCH1 252106Z 16009KT 31/20 A2998 RMK A01 T03120201  RH  052%=      5-min Rain = 0
KCH1 252107Z 18008KT 31/20 A2998 RMK A01 T03120198  RH  051%=      5-min Rain = 0
KCH1 252108Z 17009KT 31/19 A2998 RMK A01 T03100194  RH  050%=      5-min Rain = 0
KCH1 252109Z 18008KT 31/20 A2998 RMK A01 T03080198  RH  052%=      5-min Rain = 0
KCH1 252110Z 17009KT 31/20 A2998 RMK A01 T03080196  RH  051%=      5-min Rain = 0
KCH1 252111Z 17008KT 31/20 A2998 RMK A01 T03070199  RH  052%=      5-min Rain = 0
KCH1 252112Z 18008G13KT 31/20 A2998 RMK A01 T03080198  RH  052%=      5-min Rain = 0
KCH1 252113Z 18011KT 31/19 A2998 RMK A01 T03090192  RH  050%=      5-min Rain = 0
KCH1 252114Z 18012KT 31/19 A2998 RMK A01 T03090192  RH  050%=      5-min Rain = 0
KCH1 252115Z 18008KT 31/19 A2998 RMK A01 T03070192  RH  050%=      5-min Rain = 0
KCH1 252116Z 19007KT 31/20 A2998 RMK A01 T03060195  RH  052%=      5-min Rain = 0
KCH1 252117Z 18009KT 31/19 A2998 RMK A01 T03060193  RH  051%=      5-min Rain = 0
KCH1 252118Z 18010KT 31/20 A2998 RMK A01 T03070195  RH  051%=      5-min Rain = 0
KCH1 252119Z 19008KT 31/20 A2998 RMK A01 T03070196  RH  052%=      5-min Rain = 0
KCH1 252120Z 18009KT 31/20 A2998 RMK A01 T03070197  RH  052%=      5-min Rain = 0
KCH1 252121Z 19007KT 31/20 A2998 RMK A01 T03070200  RH  053%=      5-min Rain = 0
KCH1 252122Z 18007KT 31/20 A2998 RMK A01 T03070200  RH  053%=      5-min Rain = 0
KCH1 252123Z 17006KT 31/20 A2998 RMK A01 T03080202  RH  053%=      5-min Rain = 0
KCH1 252124Z 18009KT 31/20 A2998 RMK A01 T03090201  RH  052%=      5-min Rain = 0
KCH1 252125Z 17008KT 31/19 A2998 RMK A01 T03090194  RH  050%=      5-min Rain = 0
KCH1 252126Z 16009KT 31/20 A2998 RMK A01 T03090197  RH  051%=      5-min Rain = 0
KCH1 252127Z 16010KT 31/20 A2998 RMK A01 T03090196  RH  051%=      5-min Rain = 0
KCH1 252128Z 17012KT 31/19 A2998 RMK A01 T03090193  RH  050%=      5-min Rain = 0
KCH1 252129Z 16009KT 31/19 A2998 RMK A01 T03080192  RH  050%=      5-min Rain = 0
KCH1 252130Z 15008KT 31/20 A2998 RMK A01 T03080195  RH  051%=      5-min Rain = 0
KCH1 252131Z 16009KT 31/20 A2998 RMK A01 T03090196  RH  051%=      5-min Rain = 0
KCH1 252132Z 16007KT 31/19 A2998 RMK A01 T03090191  RH  049%=      5-min Rain = 0
KCH1 252133Z 15005KT 31/20 A2998 RMK A01 T03090197  RH  051%=      5-min Rain = 0
KCH1 252134Z 17009KT 31/20 A2998 RMK A01 T03100197  RH  051%=      5-min Rain = 0
KCH1 252135Z 16008KT 31/20 A2998 RMK A01 T03110200  RH  052%=      5-min Rain = 0
KCH1 252136Z 17011KT 31/20 A2998 RMK A01 T03120201  RH  052%=      5-min Rain = 0
KCH1 252137Z 17009G14KT 31/20 A2998 RMK A01 T03120199  RH  051%=      5-min Rain = 0
KCH1 252138Z 15006KT 31/20 A2998 RMK A01 T03110204  RH  053%=      5-min Rain = 0
KCH1 252139Z 15009KT 31/20 A2998 RMK A01 T03120201  RH  052%=      5-min Rain = 0
KCH1 252140Z 15010KT 31/20 A2998 RMK A01 T03120201  RH  052%=      5-min Rain = 0
KCH1 252141Z 15009KT 31/20 A2997 RMK A01 T03110201  RH  052%=      5-min Rain = 0
KCH1 252142Z 15009KT 31/21 A2997 RMK A01 T03120206  RH  053%=      5-min Rain = 0
KCH1 252143Z 15011KT 31/20 A2997 RMK A01 T03130198  RH  051%=      5-min Rain = 0
KCH1 252144Z 15011KT 31/20 A2997 RMK A01 T03130197  RH  050%=      5-min Rain = 0
KCH1 252145Z 17011KT 31/20 A2997 RMK A01 T03120200  RH  051%=      5-min Rain = 0
KCH1 252146Z 17015KT 31/20 A2997 RMK A01 T03120196  RH  050%=      5-min Rain = 0
KCH1 252147Z 15011KT 31/19 A2997 RMK A01 T03110192  RH  049%=      5-min Rain = 0
KCH1 252148Z 16012KT 31/20 A2997 RMK A01 T03100197  RH  051%=      5-min Rain = 0
KCH1 252149Z 16011KT 31/20 A2997 RMK A01 T03100199  RH  052%=      5-min Rain = 0
KCH1 252150Z 16010KT 31/20 A2997 RMK A01 T03100196  RH  051%=      5-min Rain = 0
KCH1 252151Z 16008KT 31/20 A2997 RMK A01 T03090199  RH  052%=      5-min Rain = 0
KCH1 252152Z 16010KT 31/20 A2997 RMK A01 T03090201  RH  052%=      5-min Rain = 0
KCH1 252153Z 16010G15KT 31/20 A2997 RMK A01 T03110202  RH  052%=      5-min Rain = 0
KCH1 252154Z 15010KT 31/20 A2997 RMK A01 T03120198  RH  051%=      5-min Rain = 0
KCH1 252155Z 15009KT 31/20 A2997 RMK A01 T03120200  RH  051%=      5-min Rain = 0
KCH1 252156Z 14009KT 31/20 A2997 RMK A01 T03120199  RH  051%=      5-min Rain = 0
KCH1 252157Z 15009KT 31/20 A2997 RMK A01 T03110197  RH  051%=      5-min Rain = 0
KCH1 252158Z 15008KT 31/20 A2997 RMK A01 T03100200  RH  052%=      5-min Rain = 0
KCH1 252159Z 14009KT 31/20 A2997 RMK A01 T03110204  RH  053%=      5-min Rain = 0
KCH1 252200Z 15011KT 31/20 A2997 RMK A01 T03120201  RH  052%=      5-min Rain = 0
KCH1 252201Z 14011KT 31/20 A2997 RMK A01 T03130198  RH  050%=      5-min Rain = 0
KCH1 252202Z 15009KT 31/20 A2997 RMK A01 T03130202  RH  052%=      5-min Rain = 0
KCH1 252203Z 15009KT 31/20 A2997 RMK A01 T03130204  RH  053%=      5-min Rain = 0
KCH1 252204Z 15011KT 31/20 A2997 RMK A01 T03130201  RH  051%=      5-min Rain = 0
KCH1 252205Z 17011KT 31/20 A2997 RMK A01 T03140201  RH  051%=      5-min Rain = 0
KCH1 252206Z 17010KT 31/20 A2997 RMK A01 T03130196  RH  050%=      5-min Rain = 0
KCH1 252207Z 17006KT 31/20 A2997 RMK A01 T03120202  RH  052%=      5-min Rain = 0
KCH1 252208Z 17009KT 31/20 A2997 RMK A01 T03130202  RH  052%=      5-min Rain = 0
KCH1 252209Z 16010KT 31/20 A2997 RMK A01 T03140198  RH  050%=      5-min Rain = 0
KCH1 252210Z 15013KT 31/20 A2997 RMK A01 T03140196  RH  049%=      5-min Rain = 0
KCH1 252211Z 15010KT 31/19 A2997 RMK A01 T03140192  RH  048%=      5-min Rain = 0
KCH1 252212Z 15011KT 31/19 A2997 RMK A01 T03130193  RH  049%=      5-min Rain = 0
KCH1 252213Z 16009KT 31/19 A2997 RMK A01 T03130193  RH  049%=      5-min Rain = 0
KCH1 252214Z 15011KT 31/19 A2997 RMK A01 T03130192  RH  049%=      5-min Rain = 0
KCH1 252215Z 15010KT 31/19 A2997 RMK A01 T03130193  RH  049%=      5-min Rain = 0
KCH1 252216Z 15007KT 31/20 A2997 RMK A01 T03120195  RH  050%=      5-min Rain = 0
KCH1 252217Z 16006KT 31/20 A2997 RMK A01 T03130204  RH  052%=      5-min Rain = 0
KCH1 252218Z 17009KT 32/20 A2997 RMK A01 T03160201  RH  051%=      5-min Rain = 0
KCH1 252219Z 17012KT 32/20 A2997 RMK A01 T03160198  RH  050%=      5-min Rain = 0
KCH1 252220Z 15013KT 32/20 A2997 RMK A01 T03150201  RH  051%=      5-min Rain = 0
KCH1 252221Z 15012KT 32/20 A2997 RMK A01 T03150200  RH  051%=      5-min Rain = 0
KCH1 252222Z 16010KT 31/20 A2997 RMK A01 T03140198  RH  050%=      5-min Rain = 0
KCH1 252223Z 15009G15KT 31/20 A2997 RMK A01 T03130204  RH  052%=      5-min Rain = 0
KCH1 252224Z 14013KT 31/20 A2997 RMK A01 T03140197  RH  050%=      5-min Rain = 0
KCH1 252225Z 14013KT 31/20 A2997 RMK A01 T03140196  RH  050%=      5-min Rain = 0
KCH1 252226Z 14015KT 31/19 A2997 RMK A01 T03130193  RH  049%=      5-min Rain = 0
KCH1 252227Z 13011KT 31/20 A2997 RMK A01 T03120195  RH  050%=      5-min Rain = 0
KCH1 252228Z 15010KT 31/20 A2997 RMK A01 T03120195  RH  050%=      5-min Rain = 0
KCH1 252229Z 15009KT 31/20 A2997 RMK A01 T03120196  RH  050%=      5-min Rain = 0
KCH1 252230Z 15008KT 31/20 A2997 RMK A01 T03120197  RH  050%=      5-min Rain = 0
KCH1 252231Z 15010KT 31/20 A2997 RMK A01 T03130197  RH  050%=      5-min Rain = 0
KCH1 252232Z 15010G15KT 31/20 A2997 RMK A01 T03140200  RH  051%=      5-min Rain = 0
KCH1 252233Z 15012KT 31/20 A2996 RMK A01 T03140199  RH  051%=      5-min Rain = 0
KCH1 252234Z 14013KT 31/20 A2996 RMK A01 T03130199  RH  051%=      5-min Rain = 0
KCH1 252235Z 14010KT 31/20 A2996 RMK A01 T03120198  RH  051%=      5-min Rain = 0
KCH1 252236Z 13012KT 31/20 A2996 RMK A01 T03120200  RH  051%=      5-min Rain = 0
KCH1 252237Z 14011KT 31/20 A2996 RMK A01 T03120199  RH  051%=      5-min Rain = 0
KCH1 252238Z 14011KT 31/20 A2996 RMK A01 T03110200  RH  052%=      5-min Rain = 0
KCH1 252239Z 15013KT 31/20 A2996 RMK A01 T03110199  RH  051%=      5-min Rain = 0
KCH1 252240Z 15012KT 31/20 A2996 RMK A01 T03110197  RH  051%=      5-min Rain = 0
KCH1 252241Z 15012KT 31/20 A2996 RMK A01 T03100197  RH  051%=      5-min Rain = 0
KCH1 252242Z 15012KT 31/19 A2996 RMK A01 T03100193  RH  050%=      5-min Rain = 0
KCH1 252243Z 15010KT 31/20 A2996 RMK A01 T03100197  RH  051%=      5-min Rain = 0
KCH1 252244Z 15011KT 31/20 A2996 RMK A01 T03100195  RH  051%=      5-min Rain = 0
KCH1 252245Z 15009KT 31/20 A2996 RMK A01 T03100197  RH  051%=      5-min Rain = 0
KCH1 252246Z 15008KT 31/20 A2996 RMK A01 T03100199  RH  052%=      5-min Rain = 0
KCH1 252247Z 15009KT 31/20 A2996 RMK A01 T03110201  RH  052%=      5-min Rain = 0
KCH1 252248Z 12012KT 31/20 A2996 RMK A01 T03120197  RH  050%=      5-min Rain = 0
KCH1 252249Z 12010KT 31/20 A2996 RMK A01 T03110196  RH  050%=      5-min Rain = 0
KCH1 252250Z 13010KT 31/20 A2996 RMK A01 T03110195  RH  050%=      5-min Rain = 0
KCH1 252251Z 14009KT 31/20 A2996 RMK A01 T03100199  RH  052%=      5-min Rain = 0
KCH1 252252Z 13012KT 31/20 A2996 RMK A01 T03100198  RH  051%=      5-min Rain = 0
KCH1 252253Z 13011KT 31/20 A2996 RMK A01 T03100196  RH  051%=      5-min Rain = 0
KCH1 252254Z 14013KT 31/19 A2996 RMK A01 T03100194  RH  050%=      5-min Rain = 0
KCH1 252255Z 13009KT 31/19 A2996 RMK A01 T03090194  RH  050%=      5-min Rain = 0
KCH1 252256Z 13010KT 31/20 A2996 RMK A01 T03090195  RH  051%=      5-min Rain = 0
KCH1 252257Z 13011KT 31/20 A2996 RMK A01 T03090195  RH  051%=      5-min Rain = 0
KCH1 252258Z 14009KT 31/20 A2996 RMK A01 T03090198  RH  052%=      5-min Rain = 0
KCH1 252259Z 12013KT 31/20 A2996 RMK A01 T03090195  RH  051%=      5-min Rain = 0
KCH1 252300Z 12012KT 31/19 A2996 RMK A01 T03100194  RH  050%=      5-min Rain = 0
KCH1 252301Z 12013G19KT 31/20 A2996 RMK A01 T03090196  RH  051%=      5-min Rain = 0
KCH1 252302Z 12013KT 31/19 A2996 RMK A01 T03100194  RH  050%=      5-min Rain = 0
KCH1 252303Z 12010KT 31/19 A2996 RMK A01 T03080194  RH  051%=      5-min Rain = 0
KCH1 252304Z 12011KT 31/19 A2996 RMK A01 T03080194  RH  051%=      5-min Rain = 0
KCH1 252305Z 12010KT 31/20 A2996 RMK A01 T03080195  RH  051%=      5-min Rain = 0
KCH1 252306Z 13012KT 31/19 A2996 RMK A01 T03080193  RH  050%=      5-min Rain = 0
KCH1 252307Z 11012KT 31/19 A2996 RMK A01 T03080194  RH  051%=      5-min Rain = 0
KCH1 252308Z 12010KT 31/19 A2996 RMK A01 T03080192  RH  050%=      5-min Rain = 0
KCH1 252309Z 13011KT 31/19 A2996 RMK A01 T03070194  RH  051%=      5-min Rain = 0
KCH1 252310Z 13013KT 31/19 A2996 RMK A01 T03070192  RH  050%=      5-min Rain = 0
KCH1 252311Z 14012KT 31/19 A2996 RMK A01 T03070190  RH  049%=      5-min Rain = 0
KCH1 252312Z 14009KT 31/19 A2996 RMK A01 T03070192  RH  050%=      5-min Rain = 0
KCH1 252313Z 14011KT 31/19 A2996 RMK A01 T03070194  RH  051%=      5-min Rain = 0
KCH1 252314Z 14009KT 31/20 A2996 RMK A01 T03080195  RH  051%=      5-min Rain = 0
KCH1 252315Z 13012KT 31/19 A2996 RMK A01 T03080193  RH  050%=      5-min Rain = 0
KCH1 252316Z 13012KT 31/19 A2996 RMK A01 T03080192  RH  050%=      5-min Rain = 0
KCH1 252317Z 14012KT 31/19 A2996 RMK A01 T03070190  RH  050%=      5-min Rain = 0
KCH1 252318Z 14012KT 31/19 A2996 RMK A01 T03070192  RH  051%=      5-min Rain = 0
KCH1 252319Z 13009KT 31/19 A2996 RMK A01 T03060194  RH  051%=      5-min Rain = 0
KCH1 252320Z 14012G18KT 31/20 A2996 RMK A01 T03060195  RH  051%=      5-min Rain = 0
KCH1 252321Z 13011KT 31/19 A2996 RMK A01 T03070192  RH  050%=      5-min Rain = 0
KCH1 252322Z 13009KT 31/20 A2996 RMK A01 T03070195  RH  051%=      5-min Rain = 0
KCH1 252323Z 13009G17KT 31/20 A2996 RMK A01 T03070197  RH  052%=      5-min Rain = 0
KCH1 252324Z 12012KT 31/19 A2996 RMK A01 T03070194  RH  051%=      5-min Rain = 0
KCH1 252325Z 13013KT 31/19 A2996 RMK A01 T03070194  RH  051%=      5-min Rain = 0
KCH1 252326Z 14013KT 31/19 A2996 RMK A01 T03070194  RH  051%=      5-min Rain = 0
KCH1 252327Z 13012KT 31/19 A2996 RMK A01 T03060193  RH  051%=      5-min Rain = 0
KCH1 252328Z 14012KT 31/19 A2996 RMK A01 T03060193  RH  051%=      5-min Rain = 0
KCH1 252329Z 13012KT 31/19 A2996 RMK A01 T03060192  RH  051%=      5-min Rain = 0
KCH1 252330Z 13011KT 31/19 A2996 RMK A01 T03050192  RH  051%=      5-min Rain = 0
KCH1 252331Z 13012G17KT 31/20 A2996 RMK A01 T03050195  RH  052%=      5-min Rain = 0
KCH1 252332Z 14013KT 31/19 A2996 RMK A01 T03050194  RH  051%=      5-min Rain = 0
KCH1 252333Z 13013KT 31/19 A2996 RMK A01 T03050194  RH  051%=      5-min Rain = 0
KCH1 252334Z 13011KT 31/19 A2996 RMK A01 T03050191  RH  051%=      5-min Rain = 0
KCH1 252335Z 13011KT 31/19 A2996 RMK A01 T03050193  RH  051%=      5-min Rain = 0
KCH1 252336Z 14013KT 31/19 A2996 RMK A01 T03050193  RH  051%=      5-min Rain = 0
KCH1 252337Z 14012G17KT 31/19 A2996 RMK A01 T03050192  RH  051%=      5-min Rain = 0
KCH1 252338Z 13012KT 31/19 A2996 RMK A01 T03050193  RH  051%=      5-min Rain = 0
KCH1 252339Z 13011KT 31/19 A2996 RMK A01 T03050191  RH  051%=      5-min Rain = 0
KCH1 252340Z 14010KT 30/19 A2996 RMK A01 T03040193  RH  052%=      5-min Rain = 0
KCH1 252341Z 13011KT 30/19 A2996 RMK A01 T03040191  RH  051%=      5-min Rain = 0
KCH1 252342Z 14010KT 30/19 A2996 RMK A01 T03040193  RH  052%=      5-min Rain = 0
KCH1 252343Z 13011KT 30/20 A2996 RMK A01 T03040195  RH  052%=      5-min Rain = 0
KCH1 252344Z 13010KT 30/20 A2996 RMK A01 T03040196  RH  052%=      5-min Rain = 0
KCH1 252345Z 13011KT 30/19 A2996 RMK A01 T03040193  RH  051%=      5-min Rain = 0
KCH1 252346Z 13011KT 30/19 A2996 RMK A01 T03040192  RH  051%=      5-min Rain = 0
KCH1 252347Z 12011KT 30/19 A2996 RMK A01 T03040194  RH  052%=      5-min Rain = 0
KCH1 252348Z 13010KT 30/19 A2996 RMK A01 T03040193  RH  052%=      5-min Rain = 0
KCH1 252349Z 13010G15KT 30/19 A2996 RMK A01 T03040194  RH  052%=      5-min Rain = 0
KCH1 252350Z 13011KT 30/19 A2996 RMK A01 T03040192  RH  051%=      5-min Rain = 0
KCH1 252351Z 12008KT 30/19 A2996 RMK A01 T03040194  RH  052%=      5-min Rain = 0
KCH1 252352Z 13010KT 30/19 A2996 RMK A01 T03030194  RH  052%=      5-min Rain = 0
KCH1 252353Z 13009KT 30/19 A2995 RMK A01 T03040193  RH  052%=      5-min Rain = 0
KCH1 252354Z 12011KT 30/19 A2995 RMK A01 T03040194  RH  052%=      5-min Rain = 0
KCH1 252355Z 14012KT 30/19 A2995 RMK A01 T03040193  RH  052%=      5-min Rain = 0
KCH1 252356Z 14011KT 30/19 A2995 RMK A01 T03030192  RH  051%=      5-min Rain = 0
KCH1 252357Z 12008KT 30/20 A2995 RMK A01 T03030196  RH  053%=      5-min Rain = 0
KCH1 252358Z 13011KT 30/19 A2995 RMK A01 T03030194  RH  052%=      5-min Rain = 0
KCH1 252359Z 13010KT 30/20 A2995 RMK A01 T03030196  RH  053%=      5-min Rain = 0
KCH1 260000Z 13009KT 30/19 A2995 RMK A01 T03030192  RH  051%=      5-min Rain = 0
KCH1 260001Z 14008KT 30/20 A2995 RMK A01 T03020195  RH  053%=      5-min Rain = 0
KCH1 260002Z 14011G16KT 30/20 A2995 RMK A01 T03020195  RH  053%=      5-min Rain = 0
KCH1 260003Z 13011KT 30/19 A2995 RMK A01 T03020192  RH  052%=      5-min Rain = 0
KCH1 260004Z 14012KT 30/19 A2995 RMK A01 T03020193  RH  052%=      5-min Rain = 0
KCH1 260005Z 14010KT 30/19 A2995 RMK A01 T03020193  RH  052%=      5-min Rain = 0
KCH1 260006Z 13008G14KT 30/19 A2995 RMK A01 T03020194  RH  053%=      5-min Rain = 0
KCH1 260007Z 13015KT 30/19 A2995 RMK A01 T03020189  RH  051%=      5-min Rain = 0
KCH1 260008Z 14010KT 30/19 A2995 RMK A01 T03010190  RH  051%=      5-min Rain = 0
KCH1 260009Z 14011KT 30/19 A2995 RMK A01 T03010191  RH  052%=      5-min Rain = 0
KCH1 260010Z 14011KT 30/19 A2995 RMK A01 T03010193  RH  052%=      5-min Rain = 0
KCH1 260011Z 13012KT 30/19 A2995 RMK A01 T03010189  RH  051%=      5-min Rain = 0
KCH1 260012Z 13010KT 30/19 A2995 RMK A01 T03010190  RH  051%=      5-min Rain = 0
KCH1 260013Z 13011KT 30/19 A2995 RMK A01 T03010190  RH  052%=      5-min Rain = 0
KCH1 260014Z 12010KT 30/19 A2995 RMK A01 T03010191  RH  052%=      5-min Rain = 0
KCH1 260015Z 13013KT 30/19 A2995 RMK A01 T03010191  RH  052%=      5-min Rain = 0
KCH1 260016Z 13013KT 30/19 A2995 RMK A01 T03010189  RH  051%=      5-min Rain = 0
KCH1 260017Z 13012KT 30/19 A2995 RMK A01 T03000188  RH  051%=      5-min Rain = 0
KCH1 260018Z 13014KT 30/19 A2995 RMK A01 T03000187  RH  051%=      5-min Rain = 0
KCH1 260019Z 14012KT 30/19 A2995 RMK A01 T02990187  RH  051%=      5-min Rain = 0
KCH1 260020Z 13010KT 30/19 A2995 RMK A01 T02990188  RH  051%=      5-min Rain = 0
KCH1 260021Z 13012KT 30/19 A2995 RMK A01 T02990188  RH  051%=      5-min Rain = 0
KCH1 260022Z 12011KT 30/19 A2995 RMK A01 T02990188  RH  051%=      5-min Rain = 0
KCH1 260023Z 12012KT 30/19 A2995 RMK A01 T02990188  RH  051%=      5-min Rain = 0
KCH1 260024Z 13010KT 30/19 A2995 RMK A01 T02980188  RH  051%=      5-min Rain = 0
KCH1 260025Z 13008KT 30/19 A2995 RMK A01 T02990189  RH  052%=      5-min Rain = 0
KCH1 260026Z 13009KT 30/19 A2995 RMK A01 T02980190  RH  052%=      5-min Rain = 0
KCH1 260027Z 13010KT 30/19 A2995 RMK A01 T02980189  RH  052%=      5-min Rain = 0
KCH1 260028Z 13010KT 30/19 A2995 RMK A01 T02980188  RH  051%=      5-min Rain = 0
KCH1 260029Z 13011KT 30/19 A2995 RMK A01 T02980187  RH  051%=      5-min Rain = 0
KCH1 260030Z 13010KT 30/19 A2995 RMK A01 T02980186  RH  051%=      5-min Rain = 0
KCH1 260031Z 13008KT 30/18 A2995 RMK A01 T02980184  RH  050%=      5-min Rain = 0
KCH1 260032Z 13010KT 30/18 A2996 RMK A01 T02980184  RH  050%=      5-min Rain = 0
KCH1 260033Z 13009KT 30/18 A2996 RMK A01 T02980184  RH  050%=      5-min Rain = 0
KCH1 260034Z 13009KT 30/18 A2996 RMK A01 T02980183  RH  050%=      5-min Rain = 0
KCH1 260035Z 13009KT 30/18 A2996 RMK A01 T02970182  RH  050%=      5-min Rain = 0
KCH1 260036Z 14009KT 30/18 A2996 RMK A01 T02970183  RH  050%=      5-min Rain = 0
KCH1 260037Z 13009KT 30/18 A2996 RMK A01 T02970183  RH  050%=      5-min Rain = 0
KCH1 260038Z 12008KT 30/18 A2996 RMK A01 T02960184  RH  051%=      5-min Rain = 0
KCH1 260039Z 12009KT 30/18 A2996 RMK A01 T02960183  RH  051%=      5-min Rain = 0
KCH1 260040Z 13008KT 30/18 A2996 RMK A01 T02960183  RH  051%=      5-min Rain = 0
KCH1 260041Z 12008KT 30/18 A2996 RMK A01 T02960184  RH  051%=      5-min Rain = 0
KCH1 260042Z 12007KT 30/18 A2996 RMK A01 T02960183  RH  051%=      5-min Rain = 0
KCH1 260043Z 13008KT 30/18 A2996 RMK A01 T02950182  RH  051%=      5-min Rain = 0
KCH1 260044Z 14009KT 30/18 A2996 RMK A01 T02950184  RH  051%=      5-min Rain = 0
KCH1 260045Z 13011KT 30/18 A2996 RMK A01 T02950182  RH  051%=      5-min Rain = 0
KCH1 260046Z 12009KT 30/18 A2996 RMK A01 T02950181  RH  050%=      5-min Rain = 0
KCH1 260047Z 13009KT 30/18 A2996 RMK A01 T02950181  RH  050%=      5-min Rain = 0
KCH1 260048Z 13008KT 29/18 A2996 RMK A01 T02940183  RH  051%=      5-min Rain = 0
KCH1 260049Z 13008KT 29/18 A2996 RMK A01 T02940182  RH  051%=      5-min Rain = 0
KCH1 260050Z 12009KT 29/18 A2996 RMK A01 T02930181  RH  051%=      5-min Rain = 0
KCH1 260051Z 12010KT 29/18 A2996 RMK A01 T02930181  RH  051%=      5-min Rain = 0
KCH1 260052Z 13008KT 29/18 A2996 RMK A01 T02930180  RH  051%=      5-min Rain = 0
KCH1 260053Z 12009KT 29/18 A2996 RMK A01 T02930180  RH  051%=      5-min Rain = 0
KCH1 260054Z 12008KT 29/18 A2996 RMK A01 T02920181  RH  051%=      5-min Rain = 0
KCH1 260055Z 13010KT 29/18 A2996 RMK A01 T02920180  RH  051%=      5-min Rain = 0
KCH1 260056Z 13008KT 29/18 A2996 RMK A01 T02920179  RH  051%=      5-min Rain = 0
KCH1 260057Z 13009KT 29/18 A2996 RMK A01 T02910180  RH  051%=      5-min Rain = 0
KCH1 260058Z 13008KT 29/18 A2996 RMK A01 T02910180  RH  051%=      5-min Rain = 0
KCH1 260059Z 13008KT 29/18 A2996 RMK A01 T02900179  RH  051%=      5-min Rain = 0
KCH1 260100Z 13008KT 29/18 A2996 RMK A01 T02910179  RH  051%=      5-min Rain = 0
KCH1 260101Z 13009KT 29/18 A2996 RMK A01 T02900180  RH  051%=      5-min Rain = 0
KCH1 260102Z 13008KT 29/18 A2996 RMK A01 T02900180  RH  051%=      5-min Rain = 0
KCH1 260103Z 13009KT 29/18 A2996 RMK A01 T02890179  RH  051%=      5-min Rain = 0
KCH1 260104Z 13008KT 29/18 A2996 RMK A01 T02900179  RH  051%=      5-min Rain = 0
KCH1 260105Z 13007KT 29/18 A2996 RMK A01 T02890181  RH  052%=      5-min Rain = 0
KCH1 260106Z 12008KT 29/18 A2996 RMK A01 T02890182  RH  052%=      5-min Rain = 0
KCH1 260107Z 12007KT 29/18 A2996 RMK A01 T02880181  RH  053%=      5-min Rain = 0
KCH1 260108Z 12007KT 29/18 A2996 RMK A01 T02880182  RH  053%=      5-min Rain = 0
KCH1 260109Z 12006KT 29/18 A2996 RMK A01 T02870183  RH  053%=      5-min Rain = 0
KCH1 260110Z 13008KT 29/18 A2996 RMK A01 T02870182  RH  053%=      5-min Rain = 0
KCH1 260111Z 12008KT 29/18 A2996 RMK A01 T02860182  RH  053%=      5-min Rain = 0
KCH1 260112Z 13007KT 29/18 A2996 RMK A01 T02860183  RH  053%=      5-min Rain = 0
KCH1 260113Z 13007KT 29/18 A2996 RMK A01 T02860182  RH  053%=      5-min Rain = 0
KCH1 260114Z 13009KT 29/18 A2996 RMK A01 T02860180  RH  053%=      5-min Rain = 0
KCH1 260115Z 13009KT 29/18 A2996 RMK A01 T02850180  RH  053%=      5-min Rain = 0
KCH1 260116Z 13009KT 29/18 A2997 RMK A01 T02850179  RH  053%=      5-min Rain = 0
KCH1 260117Z 12007KT 29/18 A2997 RMK A01 T02860180  RH  053%=      5-min Rain = 0
KCH1 260118Z 13007KT 29/18 A2997 RMK A01 T02860180  RH  053%=      5-min Rain = 0
KCH1 260119Z 12007KT 29/18 A2997 RMK A01 T02860180  RH  053%=      5-min Rain = 0
KCH1 260120Z 13007KT 29/18 A2997 RMK A01 T02850181  RH  053%=      5-min Rain = 0
KCH1 260121Z 12008KT 28/18 A2997 RMK A01 T02840180  RH  053%=      5-min Rain = 0
KCH1 260122Z 12008KT 28/18 A2997 RMK A01 T02840180  RH  053%=      5-min Rain = 0
KCH1 260123Z 12006KT 28/18 A2997 RMK A01 T02840181  RH  054%=      5-min Rain = 0
KCH1 260124Z 13006KT 28/18 A2997 RMK A01 T02830180  RH  054%=      5-min Rain = 0
KCH1 260125Z 12007KT 28/18 A2997 RMK A01 T02820180  RH  054%=      5-min Rain = 0
KCH1 260126Z 12006KT 28/18 A2997 RMK A01 T02820179  RH  054%=      5-min Rain = 0
KCH1 260127Z 12007KT 28/18 A2997 RMK A01 T02820179  RH  054%=      5-min Rain = 0
KCH1 260128Z 12006KT 28/18 A2997 RMK A01 T02820180  RH  054%=      5-min Rain = 0
KCH1 260129Z 12005KT 28/18 A2997 RMK A01 T02800181  RH  055%=      5-min Rain = 0
KCH1 260130Z 12006KT 28/18 A2997 RMK A01 T02790181  RH  055%=      5-min Rain = 0
KCH1 260131Z 12006KT 28/18 A2997 RMK A01 T02780180  RH  055%=      5-min Rain = 0
KCH1 260132Z 12005KT 28/18 A2997 RMK A01 T02780181  RH  055%=      5-min Rain = 0
KCH1 260133Z 12005KT 28/18 A2997 RMK A01 T02770181  RH  056%=      5-min Rain = 0
KCH1 260134Z 12005KT 28/18 A2998 RMK A01 T02760180  RH  056%=      5-min Rain = 0
KCH1 260135Z 12005KT 28/18 A2998 RMK A01 T02750180  RH  056%=      5-min Rain = 0
KCH1 260136Z 12005KT 28/18 A2998 RMK A01 T02750181  RH  056%=      5-min Rain = 0
KCH1 260137Z 12006KT 27/18 A2998 RMK A01 T02740180  RH  057%=      5-min Rain = 0
KCH1 260138Z 12005KT 27/18 A2998 RMK A01 T02740180  RH  057%=      5-min Rain = 0
KCH1 260139Z 11005KT 27/18 A2998 RMK A01 T02730180  RH  057%=      5-min Rain = 0
KCH1 260140Z 12006KT 27/18 A2998 RMK A01 T02720180  RH  057%=      5-min Rain = 0
KCH1 260141Z 12006KT 27/18 A2998 RMK A01 T02720180  RH  057%=      5-min Rain = 0
KCH1 260142Z 12006KT 27/18 A2998 RMK A01 T02710179  RH  057%=      5-min Rain = 0
KCH1 260143Z 11006KT 27/18 A2998 RMK A01 T02710179  RH  057%=      5-min Rain = 0
KCH1 260144Z 11006KT 27/18 A2998 RMK A01 T02710177  RH  057%=      5-min Rain = 0
KCH1 260145Z 11006KT 27/18 A2998 RMK A01 T02710177  RH  056%=      5-min Rain = 0
KCH1 260146Z 12006KT 27/18 A2998 RMK A01 T02710175  RH  056%=      5-min Rain = 0
KCH1 260147Z 12007KT 27/18 A2998 RMK A01 T02710175  RH  056%=      5-min Rain = 0
KCH1 260148Z 11007KT 27/17 A2998 RMK A01 T02710174  RH  055%=      5-min Rain = 0
KCH1 260149Z 11007KT 27/17 A2998 RMK A01 T02710174  RH  056%=      5-min Rain = 0
KCH1 260150Z 11007KT 27/18 A2998 RMK A01 T02710175  RH  056%=      5-min Rain = 0
KCH1 260151Z 12006KT 27/17 A2998 RMK A01 T02700174  RH  056%=      5-min Rain = 0
KCH1 260152Z 11006KT 27/17 A2998 RMK A01 T02690174  RH  056%=      5-min Rain = 0
KCH1 260153Z 12006KT 27/17 A2998 RMK A01 T02690173  RH  056%=      5-min Rain = 0
KCH1 260154Z 11007KT 27/17 A2998 RMK A01 T02680172  RH  056%=      5-min Rain = 0
KCH1 260155Z 11006KT 27/17 A2998 RMK A01 T02680171  RH  055%=      5-min Rain = 0
KCH1 260156Z 11007KT 27/17 A2998 RMK A01 T02680171  RH  055%=      5-min Rain = 0
KCH1 260157Z 11006KT 27/17 A2998 RMK A01 T02680172  RH  056%=      5-min Rain = 0
KCH1 260158Z 11007KT 27/17 A2998 RMK A01 T02670170  RH  055%=      5-min Rain = 0
KCH1 260159Z 12006KT 27/17 A2998 RMK A01 T02670169  RH  055%=      5-min Rain = 0
KCH1 260200Z 11007KT 27/17 A2998 RMK A01 T02670168  RH  055%=      5-min Rain = 0
KCH1 260201Z 11006KT 27/17 A2998 RMK A01 T02670169  RH  055%=      5-min Rain = 0
KCH1 260202Z 11007KT 27/17 A2998 RMK A01 T02670169  RH  055%=      5-min Rain = 0
KCH1 260203Z 11007KT 27/17 A2998 RMK A01 T02670168  RH  055%=      5-min Rain = 0
KCH1 260204Z 11006KT 27/17 A2998 RMK A01 T02660168  RH  055%=      5-min Rain = 0
KCH1 260205Z 11006KT 27/17 A2999 RMK A01 T02660168  RH  055%=      5-min Rain = 0
KCH1 260206Z 11007KT 27/17 A2999 RMK A01 T02660167  RH  055%=      5-min Rain = 0
KCH1 260207Z 11006KT 27/17 A2999 RMK A01 T02660168  RH  055%=      5-min Rain = 0
KCH1 260208Z 11006KT 27/17 A2999 RMK A01 T02660168  RH  055%=      5-min Rain = 0
KCH1 260209Z 11006KT 27/17 A2999 RMK A01 T02650168  RH  055%=      5-min Rain = 0
KCH1 260210Z 11007KT 26/17 A2999 RMK A01 T02640167  RH  055%=      5-min Rain = 0
KCH1 260211Z 11007KT 26/17 A2999 RMK A01 T02640167  RH  055%=      5-min Rain = 0
KCH1 260212Z 11006KT 26/17 A2999 RMK A01 T02640167  RH  055%=      5-min Rain = 0
KCH1 260213Z 11007KT 26/17 A2999 RMK A01 T02640167  RH  055%=      5-min Rain = 0
KCH1 260214Z 11006KT 26/17 A2999 RMK A01 T02630166  RH  055%=      5-min Rain = 0
KCH1 260215Z 10006KT 26/17 A2999 RMK A01 T02630168  RH  056%=      5-min Rain = 0
KCH1 260216Z 10006KT 26/17 A2999 RMK A01 T02630168  RH  056%=      5-min Rain = 0
KCH1 260217Z 11007KT 26/17 A2999 RMK A01 T02620167  RH  056%=      5-min Rain = 0
KCH1 260218Z 10006KT 26/17 A2999 RMK A01 T02620167  RH  056%=      5-min Rain = 0
KCH1 260219Z 10006KT 26/17 A2999 RMK A01 T02610167  RH  056%=      5-min Rain = 0
KCH1 260220Z 10005KT 26/17 A2999 RMK A01 T02610168  RH  056%=      5-min Rain = 0
KCH1 260221Z 10007KT 26/17 A2999 RMK A01 T02610169  RH  057%=      5-min Rain = 0
KCH1 260222Z 10006KT 26/17 A2999 RMK A01 T02600169  RH  057%=      5-min Rain = 0
KCH1 260223Z 10006KT 26/17 A2999 RMK A01 T02600169  RH  057%=      5-min Rain = 0
KCH1 260224Z 10006KT 26/17 A2999 RMK A01 T02590169  RH  057%=      5-min Rain = 0
KCH1 260225Z 09005KT 26/17 A2999 RMK A01 T02590169  RH  058%=      5-min Rain = 0
KCH1 260226Z 09005KT 26/17 A2999 RMK A01 T02590169  RH  058%=      5-min Rain = 0
KCH1 260227Z 10005KT 26/17 A2999 RMK A01 T02580169  RH  058%=      5-min Rain = 0
KCH1 260228Z 09006KT 26/17 A30 RMK A01 T02580170  RH  058%=      5-min Rain = 0
KCH1 260229Z 10006KT 26/17 A30 RMK A01 T02570170  RH  059%=      5-min Rain = 0
KCH1 260230Z 09005KT 26/17 A30 RMK A01 T02570170  RH  059%=      5-min Rain = 0
KCH1 260231Z 10006KT 26/17 A30 RMK A01 T02560171  RH  059%=      5-min Rain = 0
KCH1 260232Z 10005KT 26/17 A30 RMK A01 T02560171  RH  059%=      5-min Rain = 0
KCH1 260233Z 10005KT 26/17 A30 RMK A01 T02560171  RH  060%=      5-min Rain = 0
KCH1 260234Z 10006KT 26/17 A30 RMK A01 T02550171  RH  060%=      5-min Rain = 0
KCH1 260235Z 10005KT 26/17 A30 RMK A01 T02560172  RH  060%=      5-min Rain = 0
KCH1 260236Z 10006KT 26/17 A30 RMK A01 T02560173  RH  060%=      5-min Rain = 0
KCH1 260237Z 10005KT 26/17 A30 RMK A01 T02550172  RH  060%=      5-min Rain = 0
KCH1 260238Z 10006KT 26/17 A30 RMK A01 T02550173  RH  060%=      5-min Rain = 0
KCH1 260239Z 09006KT 26/17 A30 RMK A01 T02550173  RH  061%=      5-min Rain = 0
KCH1 260240Z 09006KT 26/17 A30 RMK A01 T02550174  RH  061%=      5-min Rain = 0
KCH1 260241Z 09006KT 25/17 A30 RMK A01 T02540174  RH  061%=      5-min Rain = 0
KCH1 260242Z 10006KT 25/17 A30 RMK A01 T02540174  RH  061%=      5-min Rain = 0
KCH1 260243Z 09006KT 25/17 A30 RMK A01 T02540174  RH  061%=      5-min Rain = 0
KCH1 260244Z 09006KT 25/17 A30 RMK A01 T02540174  RH  061%=      5-min Rain = 0
KCH1 260245Z 09005KT 25/18 A30 RMK A01 T02540175  RH  062%=      5-min Rain = 0
KCH1 260246Z 10005KT 25/18 A30 RMK A01 T02530175  RH  062%=      5-min Rain = 0
KCH1 260247Z 10006KT 25/18 A30 RMK A01 T02530175  RH  062%=      5-min Rain = 0
KCH1 260248Z 10006KT 25/18 A30 RMK A01 T02530175  RH  062%=      5-min Rain = 0
KCH1 260249Z 10006KT 25/18 A30 RMK A01 T02530176  RH  062%=      5-min Rain = 0
KCH1 260250Z 10006KT 25/18 A30 RMK A01 T02530177  RH  063%=      5-min Rain = 0
KCH1 260251Z 10005KT 25/18 A3001 RMK A01 T02530177  RH  063%=      5-min Rain = 0
KCH1 260252Z 10005KT 25/18 A3001 RMK A01 T02530177  RH  063%=      5-min Rain = 0
KCH1 260253Z 11005KT 25/18 A3001 RMK A01 T02520177  RH  063%=      5-min Rain = 0
KCH1 260254Z 11007KT 25/18 A3001 RMK A01 T02520177  RH  063%=      5-min Rain = 0
KCH1 260255Z 11006KT 25/18 A3001 RMK A01 T02520177  RH  063%=      5-min Rain = 0
KCH1 260256Z 10005KT 25/18 A3001 RMK A01 T02530177  RH  063%=      5-min Rain = 0
KCH1 260257Z 11006KT 25/18 A3001 RMK A01 T02530178  RH  063%=      5-min Rain = 0
KCH1 260258Z 10007KT 25/18 A3001 RMK A01 T02530178  RH  063%=      5-min Rain = 0
KCH1 260259Z 10006KT 25/18 A3001 RMK A01 T02530178  RH  063%=      5-min Rain = 0
KCH1 260300Z 10006KT 25/18 A3001 RMK A01 T02540179  RH  063%=      5-min Rain = 0
KCH1 260301Z 10006KT 25/18 A3001 RMK A01 T02540179  RH  063%=      5-min Rain = 0
KCH1 260302Z 10006KT 25/18 A3001 RMK A01 T02540180  RH  063%=      5-min Rain = 0
KCH1 260303Z 10006KT 25/18 A3001 RMK A01 T02540180  RH  064%=      5-min Rain = 0
KCH1 260304Z 10006KT 25/18 A3001 RMK A01 T02540180  RH  064%=      5-min Rain = 0
KCH1 260305Z 10006KT 25/18 A3001 RMK A01 T02540180  RH  064%=      5-min Rain = 0
KCH1 260306Z 10005KT 25/18 A3001 RMK A01 T02540180  RH  064%=      5-min Rain = 0
KCH1 260307Z 10006KT 25/18 A3001 RMK A01 T02530181  RH  064%=      5-min Rain = 0
KCH1 260308Z 10006KT 25/18 A3001 RMK A01 T02530181  RH  064%=      5-min Rain = 0
KCH1 260309Z 10006KT 25/18 A3001 RMK A01 T02530181  RH  064%=      5-min Rain = 0
KCH1 260310Z 10006KT 25/18 A3001 RMK A01 T02530181  RH  064%=      5-min Rain = 0
KCH1 260311Z 11006KT 25/18 A3001 RMK A01 T02530181  RH  064%=      5-min Rain = 0
KCH1 260312Z 10006KT 25/18 A3001 RMK A01 T02530181  RH  064%=      5-min Rain = 0
KCH1 260313Z 10006KT 25/18 A3001 RMK A01 T02530181  RH  064%=      5-min Rain = 0
KCH1 260314Z 10006KT 25/18 A3001 RMK A01 T02530181  RH  064%=      5-min Rain = 0
KCH1 260315Z 10006KT 25/18 A3002 RMK A01 T02530181  RH  064%=      5-min Rain = 0
KCH1 260316Z 11006KT 25/18 A3002 RMK A01 T02530181  RH  064%=      5-min Rain = 0
KCH1 260317Z 10007KT 25/18 A3002 RMK A01 T02530181  RH  064%=      5-min Rain = 0
KCH1 260318Z 10005KT 25/18 A3002 RMK A01 T02540181  RH  064%=      5-min Rain = 0
KCH1 260319Z 10005KT 25/18 A3002 RMK A01 T02530182  RH  064%=      5-min Rain = 0
KCH1 260320Z 10006KT 25/18 A3002 RMK A01 T02530182  RH  065%=      5-min Rain = 0
KCH1 260321Z 10006KT 25/18 A3002 RMK A01 T02530182  RH  065%=      5-min Rain = 0
KCH1 260322Z 11006KT 25/18 A3002 RMK A01 T02530183  RH  065%=      5-min Rain = 0
KCH1 260323Z 10005KT 25/18 A3002 RMK A01 T02530183  RH  065%=      5-min Rain = 0
KCH1 260324Z 11006KT 25/18 A3002 RMK A01 T02530183  RH  065%=      5-min Rain = 0
KCH1 260325Z 11005KT 25/18 A3002 RMK A01 T02530183  RH  065%=      5-min Rain = 0
KCH1 260326Z 10005KT 25/18 A3002 RMK A01 T02530183  RH  065%=      5-min Rain = 0
KCH1 260327Z 11005KT 25/18 A3002 RMK A01 T02530183  RH  065%=      5-min Rain = 0
KCH1 260328Z 11006KT 25/18 A3002 RMK A01 T02530182  RH  065%=      5-min Rain = 0
KCH1 260329Z 10005KT 25/18 A3002 RMK A01 T02530183  RH  065%=      5-min Rain = 0
KCH1 260330Z 11006KT 25/18 A3002 RMK A01 T02530183  RH  065%=      5-min Rain = 0
KCH1 260331Z 11006KT 25/18 A3003 RMK A01 T02530184  RH  065%=      5-min Rain = 0
KCH1 260332Z 11006KT 25/18 A3003 RMK A01 T02530184  RH  065%=      5-min Rain = 0
KCH1 260333Z 11005KT 25/18 A3003 RMK A01 T02530183  RH  065%=      5-min Rain = 0
KCH1 260334Z 11007KT 25/18 A3003 RMK A01 T02530184  RH  066%=      5-min Rain = 0
KCH1 260335Z 11006KT 25/18 A3003 RMK A01 T02520184  RH  066%=      5-min Rain = 0
KCH1 260336Z 11007KT 25/18 A3003 RMK A01 T02530184  RH  066%=      5-min Rain = 0
KCH1 260337Z 11006KT 25/18 A3003 RMK A01 T02520184  RH  066%=      5-min Rain = 0
KCH1 260338Z 11006KT 25/18 A3003 RMK A01 T02520183  RH  066%=      5-min Rain = 0
KCH1 260339Z 11006KT 25/18 A3003 RMK A01 T02530184  RH  066%=      5-min Rain = 0
KCH1 260340Z 11006KT 25/18 A3003 RMK A01 T02520184  RH  066%=      5-min Rain = 0
KCH1 260341Z 11006KT 25/18 A3003 RMK A01 T02530184  RH  066%=      5-min Rain = 0
KCH1 260342Z 11007KT 25/18 A3003 RMK A01 T02520184  RH  066%=      5-min Rain = 0
KCH1 260343Z 12007KT 25/18 A3003 RMK A01 T02530184  RH  066%=      5-min Rain = 0
KCH1 260344Z 11006KT 25/18 A3004 RMK A01 T02530184  RH  066%=      5-min Rain = 0
KCH1 260345Z 11007KT 25/18 A3004 RMK A01 T02530184  RH  066%=      5-min Rain = 0
KCH1 260346Z 12007KT 25/18 A3004 RMK A01 T02530184  RH  066%=      5-min Rain = 0
KCH1 260347Z 11007KT 25/19 A3004 RMK A01 T02530185  RH  066%=      5-min Rain = 0
KCH1 260348Z 11007KT 25/18 A3004 RMK A01 T02530184  RH  066%=      5-min Rain = 0
KCH1 260349Z 11007KT 25/19 A3004 RMK A01 T02530185  RH  066%=      5-min Rain = 0
KCH1 260350Z 11008KT 25/19 A3004 RMK A01 T02530185  RH  066%=      5-min Rain = 0
KCH1 260351Z 11006KT 25/18 A3004 RMK A01 T02530184  RH  066%=      5-min Rain = 0
KCH1 260352Z 12006KT 25/19 A3004 RMK A01 T02530185  RH  066%=      5-min Rain = 0
KCH1 260353Z 13007KT 25/19 A3004 RMK A01 T02530186  RH  066%=      5-min Rain = 0
KCH1 260354Z 12006KT 25/19 A3004 RMK A01 T02530185  RH  066%=      5-min Rain = 0
KCH1 260355Z 13005KT 25/19 A3004 RMK A01 T02520186  RH  066%=      5-min Rain = 0
KCH1 260356Z 13005KT 25/19 A3004 RMK A01 T02520186  RH  067%=      5-min Rain = 0
KCH1 260357Z 13006KT 25/19 A3004 RMK A01 T02510186  RH  067%=      5-min Rain = 0
KCH1 260358Z 14007KT 25/19 A3005 RMK A01 T02510186  RH  067%=      5-min Rain = 0
KCH1 260359Z 15005KT 25/19 A3005 RMK A01 T02510186  RH  067%=      5-min Rain = 0
KCH1 260400Z 15005KT 25/19 A3005 RMK A01 T02500186  RH  068%=      5-min Rain = 0
KCH1 260401Z 14005KT 25/19 A3005 RMK A01 T02500186  RH  068%=      5-min Rain = 0
KCH1 260402Z 14005KT 25/19 A3005 RMK A01 T02500187  RH  068%=      5-min Rain = 0
KCH1 260403Z 13006KT 25/19 A3005 RMK A01 T02500187  RH  068%=      5-min Rain = 0
KCH1 260404Z 13006KT 25/19 A3005 RMK A01 T02490186  RH  068%=      5-min Rain = 0
KCH1 260405Z 13006KT 25/19 A3005 RMK A01 T02490186  RH  068%=      5-min Rain = 0
KCH1 260406Z 13005KT 25/19 A3005 RMK A01 T02490186  RH  068%=      5-min Rain = 0
KCH1 260407Z 13005KT 25/19 A3005 RMK A01 T02500187  RH  068%=      5-min Rain = 0
KCH1 260408Z 12006KT 25/19 A3006 RMK A01 T02500187  RH  068%=      5-min Rain = 0
KCH1 260409Z 13005KT 25/19 A3006 RMK A01 T02500187  RH  068%=      5-min Rain = 0
KCH1 260410Z 13006KT 25/19 A3006 RMK A01 T02490187  RH  069%=      5-min Rain = 0
KCH1 260411Z 14005KT 25/19 A3006 RMK A01 T02490188  RH  069%=      5-min Rain = 0
KCH1 260412Z 13004KT 25/19 A3006 RMK A01 T02480187  RH  069%=      5-min Rain = 0
KCH1 260413Z 13005KT 25/19 A3006 RMK A01 T02480188  RH  070%=      5-min Rain = 0
KCH1 260414Z 12005KT 25/19 A3006 RMK A01 T02470188  RH  070%=      5-min Rain = 0
KCH1 260415Z 13005KT 25/19 A3006 RMK A01 T02460188  RH  070%=      5-min Rain = 0
KCH1 260416Z 13005KT 25/19 A3006 RMK A01 T02460188  RH  070%=      5-min Rain = 0
KCH1 260417Z 12005KT 25/19 A3006 RMK A01 T02460188  RH  070%=      5-min Rain = 0
KCH1 260418Z 12005KT 25/19 A3006 RMK A01 T02450188  RH  070%=      5-min Rain = 0
KCH1 260419Z 12005KT 25/19 A3006 RMK A01 T02450189  RH  071%=      5-min Rain = 0
KCH1 260420Z 12005KT 25/19 A3006 RMK A01 T02450189  RH  071%=      5-min Rain = 0
KCH1 260421Z 13005KT 25/19 A3006 RMK A01 T02450189  RH  071%=      5-min Rain = 0
KCH1 260422Z 14006KT 25/19 A3006 RMK A01 T02450189  RH  071%=      5-min Rain = 0
KCH1 260423Z 14006KT 24/19 A3006 RMK A01 T02440189  RH  071%=      5-min Rain = 0
KCH1 260424Z 13006KT 24/19 A3006 RMK A01 T02440189  RH  071%=      5-min Rain = 0
KCH1 260425Z 14006KT 24/19 A3006 RMK A01 T02440189  RH  071%=      5-min Rain = 0
KCH1 260426Z 14006KT 24/19 A3006 RMK A01 T02440189  RH  071%=      5-min Rain = 0
KCH1 260427Z 14006KT 24/19 A3006 RMK A01 T02440190  RH  072%=      5-min Rain = 0
KCH1 260428Z 14006KT 24/19 A3006 RMK A01 T02440190  RH  072%=      5-min Rain = 0
KCH1 260429Z 14006KT 24/19 A3006 RMK A01 T02430190  RH  072%=      5-min Rain = 0
KCH1 260430Z 14006KT 24/19 A3006 RMK A01 T02430190  RH  073%=      5-min Rain = 0
KCH1 260431Z 14006KT 24/19 A3006 RMK A01 T02420190  RH  073%=      5-min Rain = 0
KCH1 260432Z 14005KT 24/19 A3006 RMK A01 T02420190  RH  073%=      5-min Rain = 0
KCH1 260433Z 13006KT 24/19 A3006 RMK A01 T02420190  RH  073%=      5-min Rain = 0
KCH1 260434Z 13006KT 24/19 A3006 RMK A01 T02420190  RH  073%=      5-min Rain = 0
KCH1 260435Z 13006KT 24/19 A3006 RMK A01 T02420190  RH  073%=      5-min Rain = 0
KCH1 260436Z 13005KT 24/19 A3006 RMK A01 T02420191  RH  073%=      5-min Rain = 0
KCH1 260437Z 14005KT 24/19 A3006 RMK A01 T02420191  RH  073%=      5-min Rain = 0
KCH1 260438Z 13006KT 24/19 A3006 RMK A01 T02420191  RH  073%=      5-min Rain = 0
KCH1 260439Z 14005KT 24/19 A3006 RMK A01 T02410191  RH  073%=      5-min Rain = 0
KCH1 260440Z 14006KT 24/19 A3006 RMK A01 T02410191  RH  074%=      5-min Rain = 0
KCH1 260441Z 14007KT 24/19 A3006 RMK A01 T02410191  RH  074%=      5-min Rain = 0
KCH1 260442Z 13007KT 24/19 A3006 RMK A01 T02410191  RH  073%=      5-min Rain = 0
KCH1 260443Z 13007KT 24/19 A3006 RMK A01 T02420191  RH  073%=      5-min Rain = 0
KCH1 260444Z 14007KT 24/19 A3006 RMK A01 T02420191  RH  073%=      5-min Rain = 0
KCH1 260445Z 13006KT 24/19 A3006 RMK A01 T02430191  RH  073%=      5-min Rain = 0
KCH1 260446Z 13006KT 24/19 A3006 RMK A01 T02430191  RH  073%=      5-min Rain = 0
KCH1 260447Z 13006KT 24/19 A3006 RMK A01 T02430191  RH  073%=      5-min Rain = 0
KCH1 260448Z 14005KT 24/19 A3006 RMK A01 T02430192  RH  073%=      5-min Rain = 0
KCH1 260449Z 13005KT 24/19 A3006 RMK A01 T02420192  RH  073%=      5-min Rain = 0
KCH1 260450Z 13005KT 24/19 A3006 RMK A01 T02420192  RH  074%=      5-min Rain = 0
KCH1 260451Z 13006KT 24/19 A3006 RMK A01 T02420191  RH  074%=      5-min Rain = 0
KCH1 260452Z 13006KT 24/19 A3006 RMK A01 T02420191  RH  074%=      5-min Rain = 0
KCH1 260453Z 14006KT 24/19 A3006 RMK A01 T02420192  RH  074%=      5-min Rain = 0
KCH1 260454Z 13006KT 24/19 A3006 RMK A01 T02410191  RH  074%=      5-min Rain = 0
KCH1 260455Z 14005KT 24/19 A3006 RMK A01 T02420192  RH  074%=      5-min Rain = 0
KCH1 260456Z 14006KT 24/19 A3006 RMK A01 T02410192  RH  074%=      5-min Rain = 0
KCH1 260457Z 14006KT 24/19 A3006 RMK A01 T02410192  RH  074%=      5-min Rain = 0
KCH1 260458Z 14006KT 24/19 A3006 RMK A01 T02410192  RH  074%=      5-min Rain = 0
KCH1 260459Z 14007KT 24/19 A3006 RMK A01 T02410192  RH  074%=      5-min Rain = 0

Page generated in 0.1315 seconds.